<?xml version="1.0" encoding="utf-8"?>
<gpx xmlns:xsi="http://www.w3.org/2001/XMLSchema-instance" xmlns:xsd="http://www.w3.org/2001/XMLSchema" version="1.1" creator="Shapelink.com" xmlns="http://www.topografix.com/GPX/1/1" xmlns:gpxtpx="http://www.garmin.com/xmlschemas/TrackPointExtension/v1">
  <metadata>
    <name>Längdskidåkning - Klassisk 7.53 km, 2015-02-07</name>
    <desc></desc>
    <author><name>Alexander Engvall</name></author> 
    <time>2015-02-07T16:53:23Z</time>
  </metadata>
  <trk>
    <name>Längdskidåkning - Klassisk 7.53 km, 2015-02-07</name>
    <trkseg>
      <trkpt lat="61.207940040455" lon="14.543011906964">
        <ele>480</ele>
        <time>2015-02-07T16:53:23Z</time>
      </trkpt>
      <trkpt lat="61.20804774787" lon="14.542526175859">
        <ele>478.4</ele>
        <time>2015-02-07T16:53:43Z</time>
      </trkpt>
      <trkpt lat="61.208065768955" lon="14.542456689908">
        <ele>477</ele>
        <time>2015-02-07T16:53:45Z</time>
      </trkpt>
      <trkpt lat="61.208132740336" lon="14.5422528421">
        <ele>476.6</ele>
        <time>2015-02-07T16:53:50Z</time>
      </trkpt>
      <trkpt lat="61.208231060023" lon="14.542037343451">
        <ele>476</ele>
        <time>2015-02-07T16:53:55Z</time>
      </trkpt>
      <trkpt lat="61.208308592598" lon="14.541890324925">
        <ele>475.6</ele>
        <time>2015-02-07T16:53:58Z</time>
      </trkpt>
      <trkpt lat="61.208357710532" lon="14.54179351398">
        <ele>475.6</ele>
        <time>2015-02-07T16:54:00Z</time>
      </trkpt>
      <trkpt lat="61.20849031219" lon="14.541546164111">
        <ele>475</ele>
        <time>2015-02-07T16:54:05Z</time>
      </trkpt>
      <trkpt lat="61.208547225291" lon="14.541435774488">
        <ele>474.6</ele>
        <time>2015-02-07T16:54:07Z</time>
      </trkpt>
      <trkpt lat="61.208603216383" lon="14.541273081809">
        <ele>474.2</ele>
        <time>2015-02-07T16:54:10Z</time>
      </trkpt>
      <trkpt lat="61.208690471962" lon="14.541065545965">
        <ele>474.8</ele>
        <time>2015-02-07T16:54:15Z</time>
      </trkpt>
      <trkpt lat="61.208731040358" lon="14.540747369041">
        <ele>473.6</ele>
        <time>2015-02-07T16:54:21Z</time>
      </trkpt>
      <trkpt lat="61.208735734222" lon="14.540604373827">
        <ele>472.2</ele>
        <time>2015-02-07T16:54:24Z</time>
      </trkpt>
      <trkpt lat="61.208741350095" lon="14.540490799082">
        <ele>471.6</ele>
        <time>2015-02-07T16:54:27Z</time>
      </trkpt>
      <trkpt lat="61.208755012592" lon="14.540224925214">
        <ele>470.8</ele>
        <time>2015-02-07T16:54:30Z</time>
      </trkpt>
      <trkpt lat="61.208756940429" lon="14.54016071986">
        <ele>469.6</ele>
        <time>2015-02-07T16:54:31Z</time>
      </trkpt>
      <trkpt lat="61.208763813587" lon="14.540088467882">
        <ele>468.4</ele>
        <time>2015-02-07T16:54:32Z</time>
      </trkpt>
      <trkpt lat="61.208767166347" lon="14.540029459306">
        <ele>467.2</ele>
        <time>2015-02-07T16:54:33Z</time>
      </trkpt>
      <trkpt lat="61.208770435288" lon="14.539971540377">
        <ele>467</ele>
        <time>2015-02-07T16:54:35Z</time>
      </trkpt>
      <trkpt lat="61.208769513279" lon="14.539993165679">
        <ele>468.6</ele>
        <time>2015-02-07T16:54:37Z</time>
      </trkpt>
      <trkpt lat="61.208803376155" lon="14.539640874422">
        <ele>468</ele>
        <time>2015-02-07T16:54:54Z</time>
      </trkpt>
      <trkpt lat="61.208800777766" lon="14.539563593304">
        <ele>467.8</ele>
        <time>2015-02-07T16:54:55Z</time>
      </trkpt>
      <trkpt lat="61.208806896553" lon="14.539306352793">
        <ele>467.8</ele>
        <time>2015-02-07T16:54:59Z</time>
      </trkpt>
      <trkpt lat="61.208800861585" lon="14.539122537726">
        <ele>467.6</ele>
        <time>2015-02-07T16:55:02Z</time>
      </trkpt>
      <trkpt lat="61.208801113042" lon="14.538823387715">
        <ele>468.2</ele>
        <time>2015-02-07T16:55:07Z</time>
      </trkpt>
      <trkpt lat="61.208759287361" lon="14.538597663148">
        <ele>468.6</ele>
        <time>2015-02-07T16:55:11Z</time>
      </trkpt>
      <trkpt lat="61.208722826096" lon="14.538527758102">
        <ele>469.2</ele>
        <time>2015-02-07T16:55:13Z</time>
      </trkpt>
      <trkpt lat="61.20869231598" lon="14.538405969095">
        <ele>469.6</ele>
        <time>2015-02-07T16:55:15Z</time>
      </trkpt>
      <trkpt lat="61.208588128963" lon="14.538070022543">
        <ele>468.4</ele>
        <time>2015-02-07T16:55:20Z</time>
      </trkpt>
      <trkpt lat="61.208542112332" lon="14.537945718966">
        <ele>467.2</ele>
        <time>2015-02-07T16:55:22Z</time>
      </trkpt>
      <trkpt lat="61.208517888641" lon="14.537794174214">
        <ele>466</ele>
        <time>2015-02-07T16:55:25Z</time>
      </trkpt>
      <trkpt lat="61.20851294332" lon="14.537723514797">
        <ele>465.8</ele>
        <time>2015-02-07T16:55:26Z</time>
      </trkpt>
      <trkpt lat="61.208477068788" lon="14.53754724344">
        <ele>466</ele>
        <time>2015-02-07T16:55:30Z</time>
      </trkpt>
      <trkpt lat="61.20843247708" lon="14.537385891865">
        <ele>465.8</ele>
        <time>2015-02-07T16:55:35Z</time>
      </trkpt>
      <trkpt lat="61.208397021643" lon="14.53732763766">
        <ele>466.2</ele>
        <time>2015-02-07T16:55:40Z</time>
      </trkpt>
      <trkpt lat="61.208321752181" lon="14.537243902479">
        <ele>466.2</ele>
        <time>2015-02-07T16:55:45Z</time>
      </trkpt>
      <trkpt lat="61.208187222686" lon="14.537194616907">
        <ele>466</ele>
        <time>2015-02-07T16:55:49Z</time>
      </trkpt>
      <trkpt lat="61.208057973788" lon="14.537067463484">
        <ele>466</ele>
        <time>2015-02-07T16:55:54Z</time>
      </trkpt>
      <trkpt lat="61.207968455096" lon="14.536992613117">
        <ele>466.8</ele>
        <time>2015-02-07T16:55:59Z</time>
      </trkpt>
      <trkpt lat="61.207956636617" lon="14.536971071634">
        <ele>467.2</ele>
        <time>2015-02-07T16:56:00Z</time>
      </trkpt>
      <trkpt lat="61.207913386013" lon="14.536867219893">
        <ele>467.6</ele>
        <time>2015-02-07T16:56:04Z</time>
      </trkpt>
      <trkpt lat="61.207860077129" lon="14.536795470829">
        <ele>468</ele>
        <time>2015-02-07T16:56:08Z</time>
      </trkpt>
      <trkpt lat="61.207860328586" lon="14.536793040078">
        <ele>468</ele>
        <time>2015-02-07T16:56:10Z</time>
      </trkpt>
      <trkpt lat="61.207851024677" lon="14.536780131952">
        <ele>468.2</ele>
        <time>2015-02-07T16:56:12Z</time>
      </trkpt>
      <trkpt lat="61.207843732424" lon="14.536772504423">
        <ele>468.2</ele>
        <time>2015-02-07T16:56:13Z</time>
      </trkpt>
      <trkpt lat="61.207841217854" lon="14.536775857183">
        <ele>468</ele>
        <time>2015-02-07T16:56:15Z</time>
      </trkpt>
      <trkpt lat="61.207617588762" lon="14.536812318448">
        <ele>467.2</ele>
        <time>2015-02-07T16:56:41Z</time>
      </trkpt>
      <trkpt lat="61.207597053107" lon="14.536823298737">
        <ele>467</ele>
        <time>2015-02-07T16:56:42Z</time>
      </trkpt>
      <trkpt lat="61.207531925744" lon="14.536829417524">
        <ele>466.8</ele>
        <time>2015-02-07T16:56:46Z</time>
      </trkpt>
      <trkpt lat="61.207488256045" lon="14.536736881348">
        <ele>466.8</ele>
        <time>2015-02-07T16:56:49Z</time>
      </trkpt>
      <trkpt lat="61.207480796154" lon="14.536707712336">
        <ele>466.8</ele>
        <time>2015-02-07T16:56:50Z</time>
      </trkpt>
      <trkpt lat="61.207480712335" lon="14.536691283812">
        <ele>467</ele>
        <time>2015-02-07T16:56:53Z</time>
      </trkpt>
      <trkpt lat="61.20747945505" lon="14.536668652682">
        <ele>467</ele>
        <time>2015-02-07T16:56:54Z</time>
      </trkpt>
      <trkpt lat="61.207479371231" lon="14.536676447849">
        <ele>467.2</ele>
        <time>2015-02-07T16:56:55Z</time>
      </trkpt>
      <trkpt lat="61.20741239985" lon="14.536329437189">
        <ele>467.4</ele>
        <time>2015-02-07T16:57:13Z</time>
      </trkpt>
      <trkpt lat="61.207400832828" lon="14.536273278459">
        <ele>467.4</ele>
        <time>2015-02-07T16:57:14Z</time>
      </trkpt>
      <trkpt lat="61.207385074856" lon="14.536170348727">
        <ele>467</ele>
        <time>2015-02-07T16:57:18Z</time>
      </trkpt>
      <trkpt lat="61.207386080684" lon="14.536177389523">
        <ele>467.2</ele>
        <time>2015-02-07T16:57:22Z</time>
      </trkpt>
      <trkpt lat="61.207324976633" lon="14.535789978105">
        <ele>467</ele>
        <time>2015-02-07T16:57:36Z</time>
      </trkpt>
      <trkpt lat="61.207317265285" lon="14.535740357257">
        <ele>467</ele>
        <time>2015-02-07T16:57:37Z</time>
      </trkpt>
      <trkpt lat="61.207279295278" lon="14.535561236054">
        <ele>467.2</ele>
        <time>2015-02-07T16:57:41Z</time>
      </trkpt>
      <trkpt lat="61.207272505939" lon="14.535519578011">
        <ele>467.2</ele>
        <time>2015-02-07T16:57:42Z</time>
      </trkpt>
      <trkpt lat="61.20724643823" lon="14.535392927502">
        <ele>467.2</ele>
        <time>2015-02-07T16:57:45Z</time>
      </trkpt>
      <trkpt lat="61.207244929488" lon="14.535305420466">
        <ele>467.2</ele>
        <time>2015-02-07T16:57:46Z</time>
      </trkpt>
      <trkpt lat="61.207246354411" lon="14.535193522101">
        <ele>467.6</ele>
        <time>2015-02-07T16:57:49Z</time>
      </trkpt>
      <trkpt lat="61.207262615297" lon="14.535072487465">
        <ele>468.4</ele>
        <time>2015-02-07T16:57:52Z</time>
      </trkpt>
      <trkpt lat="61.20728080402" lon="14.534993865243">
        <ele>468.8</ele>
        <time>2015-02-07T16:57:54Z</time>
      </trkpt>
      <trkpt lat="61.207316427095" lon="14.534880206679">
        <ele>469.2</ele>
        <time>2015-02-07T16:57:58Z</time>
      </trkpt>
      <trkpt lat="61.207351463437" lon="14.534764033545">
        <ele>469.4</ele>
        <time>2015-02-07T16:58:02Z</time>
      </trkpt>
      <trkpt lat="61.207372921101" lon="14.534698990001">
        <ele>469.8</ele>
        <time>2015-02-07T16:58:04Z</time>
      </trkpt>
      <trkpt lat="61.207381805915" lon="14.53467057536">
        <ele>469.8</ele>
        <time>2015-02-07T16:58:05Z</time>
      </trkpt>
      <trkpt lat="61.207398737353" lon="14.534604525988">
        <ele>470.2</ele>
        <time>2015-02-07T16:58:08Z</time>
      </trkpt>
      <trkpt lat="61.207417177533" lon="14.534508385595">
        <ele>470.6</ele>
        <time>2015-02-07T16:58:11Z</time>
      </trkpt>
      <trkpt lat="61.207427990184" lon="14.534448287372">
        <ele>470.6</ele>
        <time>2015-02-07T16:58:13Z</time>
      </trkpt>
      <trkpt lat="61.207447184735" lon="14.534264137029">
        <ele>470.8</ele>
        <time>2015-02-07T16:58:18Z</time>
      </trkpt>
      <trkpt lat="61.207450369857" lon="14.534068000569">
        <ele>470.8</ele>
        <time>2015-02-07T16:58:23Z</time>
      </trkpt>
      <trkpt lat="61.207433019324" lon="14.533873205213">
        <ele>471.2</ele>
        <time>2015-02-07T16:58:28Z</time>
      </trkpt>
      <trkpt lat="61.207430504754" lon="14.53383322355">
        <ele>471.6</ele>
        <time>2015-02-07T16:58:29Z</time>
      </trkpt>
      <trkpt lat="61.207416171705" lon="14.533722666289">
        <ele>472.2</ele>
        <time>2015-02-07T16:58:32Z</time>
      </trkpt>
      <trkpt lat="61.207393624394" lon="14.533597943617">
        <ele>472</ele>
        <time>2015-02-07T16:58:35Z</time>
      </trkpt>
      <trkpt lat="61.207366131762" lon="14.53343592149">
        <ele>472.2</ele>
        <time>2015-02-07T16:58:39Z</time>
      </trkpt>
      <trkpt lat="61.207336040741" lon="14.533237102822">
        <ele>472.8</ele>
        <time>2015-02-07T16:58:44Z</time>
      </trkpt>
      <trkpt lat="61.207323886986" lon="14.533125204457">
        <ele>473</ele>
        <time>2015-02-07T16:58:47Z</time>
      </trkpt>
      <trkpt lat="61.207296478173" lon="14.53302772296">
        <ele>473.4</ele>
        <time>2015-02-07T16:58:50Z</time>
      </trkpt>
      <trkpt lat="61.207260352184" lon="14.532976928646">
        <ele>473.6</ele>
        <time>2015-02-07T16:58:52Z</time>
      </trkpt>
      <trkpt lat="61.207244258936" lon="14.532949519833">
        <ele>473.8</ele>
        <time>2015-02-07T16:58:53Z</time>
      </trkpt>
      <trkpt lat="61.207215928114" lon="14.53292965473">
        <ele>473.6</ele>
        <time>2015-02-07T16:58:54Z</time>
      </trkpt>
      <trkpt lat="61.207105706129" lon="14.532935019146">
        <ele>473.2</ele>
        <time>2015-02-07T16:58:58Z</time>
      </trkpt>
      <trkpt lat="61.207032029228" lon="14.532918171527">
        <ele>474.2</ele>
        <time>2015-02-07T16:59:02Z</time>
      </trkpt>
      <trkpt lat="61.206997579619" lon="14.532849356128">
        <ele>474.8</ele>
        <time>2015-02-07T16:59:05Z</time>
      </trkpt>
      <trkpt lat="61.206974780851" lon="14.53279386795">
        <ele>475.6</ele>
        <time>2015-02-07T16:59:09Z</time>
      </trkpt>
      <trkpt lat="61.206993891583" lon="14.53231023232">
        <ele>475.2</ele>
        <time>2015-02-07T17:00:05Z</time>
      </trkpt>
      <trkpt lat="61.207008224632" lon="14.532225156035">
        <ele>475</ele>
        <time>2015-02-07T17:00:08Z</time>
      </trkpt>
      <trkpt lat="61.207003782225" lon="14.532225323673">
        <ele>475</ele>
        <time>2015-02-07T17:00:09Z</time>
      </trkpt>
      <trkpt lat="61.207001770569" lon="14.5322448535">
        <ele>475.4</ele>
        <time>2015-02-07T17:00:12Z</time>
      </trkpt>
      <trkpt lat="61.207001016198" lon="14.532288104104">
        <ele>475.6</ele>
        <time>2015-02-07T17:00:14Z</time>
      </trkpt>
      <trkpt lat="61.207013756686" lon="14.53249211955">
        <ele>474.8</ele>
        <time>2015-02-07T17:00:18Z</time>
      </trkpt>
      <trkpt lat="61.20701593598" lon="14.532568059564">
        <ele>474.6</ele>
        <time>2015-02-07T17:00:19Z</time>
      </trkpt>
      <trkpt lat="61.207020546025" lon="14.532727231845">
        <ele>474.8</ele>
        <time>2015-02-07T17:00:23Z</time>
      </trkpt>
      <trkpt lat="61.207030771943" lon="14.532649866908">
        <ele>475.4</ele>
        <time>2015-02-07T17:00:27Z</time>
      </trkpt>
      <trkpt lat="61.207030855762" lon="14.532643077569">
        <ele>475.4</ele>
        <time>2015-02-07T17:00:28Z</time>
      </trkpt>
      <trkpt lat="61.207028676468" lon="14.532647436157">
        <ele>475.4</ele>
        <time>2015-02-07T17:00:29Z</time>
      </trkpt>
      <trkpt lat="61.206991963746" lon="14.532358512064">
        <ele>475</ele>
        <time>2015-02-07T17:03:16Z</time>
      </trkpt>
      <trkpt lat="61.206995148868" lon="14.53229933585">
        <ele>474.8</ele>
        <time>2015-02-07T17:03:17Z</time>
      </trkpt>
      <trkpt lat="61.207083997008" lon="14.531946541679">
        <ele>474.6</ele>
        <time>2015-02-07T17:03:22Z</time>
      </trkpt>
      <trkpt lat="61.207181227048" lon="14.531765911734">
        <ele>473.4</ele>
        <time>2015-02-07T17:03:25Z</time>
      </trkpt>
      <trkpt lat="61.207211318069" lon="14.531677063594">
        <ele>473</ele>
        <time>2015-02-07T17:03:26Z</time>
      </trkpt>
      <trkpt lat="61.207247946972" lon="14.531480591858">
        <ele>472.8</ele>
        <time>2015-02-07T17:03:29Z</time>
      </trkpt>
      <trkpt lat="61.20724140909" lon="14.531412027916">
        <ele>472.8</ele>
        <time>2015-02-07T17:03:30Z</time>
      </trkpt>
      <trkpt lat="61.207227076041" lon="14.531287724339">
        <ele>473.2</ele>
        <time>2015-02-07T17:03:32Z</time>
      </trkpt>
      <trkpt lat="61.207196063011" lon="14.531064095247">
        <ele>474</ele>
        <time>2015-02-07T17:03:36Z</time>
      </trkpt>
      <trkpt lat="61.207175946451" lon="14.530790090936">
        <ele>474</ele>
        <time>2015-02-07T17:03:40Z</time>
      </trkpt>
      <trkpt lat="61.207147364172" lon="14.530545255637">
        <ele>473.8</ele>
        <time>2015-02-07T17:03:44Z</time>
      </trkpt>
      <trkpt lat="61.207136132426" lon="14.530324644029">
        <ele>473.6</ele>
        <time>2015-02-07T17:03:48Z</time>
      </trkpt>
      <trkpt lat="61.207126157965" lon="14.530035887574">
        <ele>473.6</ele>
        <time>2015-02-07T17:03:53Z</time>
      </trkpt>
      <trkpt lat="61.20706706557" lon="14.529869339221">
        <ele>473.8</ele>
        <time>2015-02-07T17:03:57Z</time>
      </trkpt>
      <trkpt lat="61.20696732096" lon="14.529667586888">
        <ele>473.8</ele>
        <time>2015-02-07T17:04:02Z</time>
      </trkpt>
      <trkpt lat="61.206912503334" lon="14.529511683548">
        <ele>474</ele>
        <time>2015-02-07T17:04:06Z</time>
      </trkpt>
      <trkpt lat="61.206875790612" lon="14.529356115484">
        <ele>474.6</ele>
        <time>2015-02-07T17:04:10Z</time>
      </trkpt>
      <trkpt lat="61.20684829798" lon="14.529279840194">
        <ele>474.6</ele>
        <time>2015-02-07T17:04:12Z</time>
      </trkpt>
      <trkpt lat="61.206801610797" lon="14.529142544672">
        <ele>474.6</ele>
        <time>2015-02-07T17:04:17Z</time>
      </trkpt>
      <trkpt lat="61.206738746547" lon="14.529036597456">
        <ele>474.6</ele>
        <time>2015-02-07T17:04:21Z</time>
      </trkpt>
      <trkpt lat="61.206711086277" lon="14.52902955666">
        <ele>474.4</ele>
        <time>2015-02-07T17:04:22Z</time>
      </trkpt>
      <trkpt lat="61.206644869267" lon="14.529063168079">
        <ele>473.8</ele>
        <time>2015-02-07T17:04:25Z</time>
      </trkpt>
      <trkpt lat="61.206560966448" lon="14.529088900512">
        <ele>474</ele>
        <time>2015-02-07T17:04:29Z</time>
      </trkpt>
      <trkpt lat="61.206549567064" lon="14.529093510557">
        <ele>473.8</ele>
        <time>2015-02-07T17:04:30Z</time>
      </trkpt>
      <trkpt lat="61.206540598431" lon="14.529101641">
        <ele>473.8</ele>
        <time>2015-02-07T17:04:33Z</time>
      </trkpt>
      <trkpt lat="61.206367260739" lon="14.529130307098">
        <ele>475.2</ele>
        <time>2015-02-07T17:04:51Z</time>
      </trkpt>
      <trkpt lat="61.206323758678" lon="14.529145729794">
        <ele>475.6</ele>
        <time>2015-02-07T17:04:53Z</time>
      </trkpt>
      <trkpt lat="61.20626743231" lon="14.529174731168">
        <ele>475.6</ele>
        <time>2015-02-07T17:04:55Z</time>
      </trkpt>
      <trkpt lat="61.206144721294" lon="14.529164337612">
        <ele>475</ele>
        <time>2015-02-07T17:04:59Z</time>
      </trkpt>
      <trkpt lat="61.206098201749" lon="14.529154111694">
        <ele>475</ele>
        <time>2015-02-07T17:05:01Z</time>
      </trkpt>
      <trkpt lat="61.206035337499" lon="14.529172384236">
        <ele>475</ele>
        <time>2015-02-07T17:05:04Z</time>
      </trkpt>
      <trkpt lat="61.205941627857" lon="14.529183867439">
        <ele>475.2</ele>
        <time>2015-02-07T17:05:08Z</time>
      </trkpt>
      <trkpt lat="61.205914470501" lon="14.529173054788">
        <ele>475</ele>
        <time>2015-02-07T17:05:09Z</time>
      </trkpt>
      <trkpt lat="61.205860155789" lon="14.529128043985">
        <ele>475.2</ele>
        <time>2015-02-07T17:05:11Z</time>
      </trkpt>
      <trkpt lat="61.205821934325" lon="14.52908320082">
        <ele>475.2</ele>
        <time>2015-02-07T17:05:13Z</time>
      </trkpt>
      <trkpt lat="61.205807014543" lon="14.529036765094">
        <ele>475.2</ele>
        <time>2015-02-07T17:05:14Z</time>
      </trkpt>
      <trkpt lat="61.205758986256" lon="14.528907516196">
        <ele>475.2</ele>
        <time>2015-02-07T17:05:17Z</time>
      </trkpt>
      <trkpt lat="61.205719926602" lon="14.528794695822">
        <ele>475</ele>
        <time>2015-02-07T17:05:21Z</time>
      </trkpt>
      <trkpt lat="61.205673658514" lon="14.528646671468">
        <ele>475.2</ele>
        <time>2015-02-07T17:05:25Z</time>
      </trkpt>
      <trkpt lat="61.205617918879" lon="14.528506190824">
        <ele>475.4</ele>
        <time>2015-02-07T17:05:29Z</time>
      </trkpt>
      <trkpt lat="61.205547762376" lon="14.528374594994">
        <ele>475.6</ele>
        <time>2015-02-07T17:05:33Z</time>
      </trkpt>
      <trkpt lat="61.205481377728" lon="14.528243250621">
        <ele>475.8</ele>
        <time>2015-02-07T17:05:36Z</time>
      </trkpt>
      <trkpt lat="61.205431924518" lon="14.528017693692">
        <ele>476.2</ele>
        <time>2015-02-07T17:05:40Z</time>
      </trkpt>
      <trkpt lat="61.205420944229" lon="14.527979388409">
        <ele>476.2</ele>
        <time>2015-02-07T17:05:41Z</time>
      </trkpt>
      <trkpt lat="61.205416250365" lon="14.52791057301">
        <ele>476.2</ele>
        <time>2015-02-07T17:05:42Z</time>
      </trkpt>
      <trkpt lat="61.205390937027" lon="14.527760117905">
        <ele>475.8</ele>
        <time>2015-02-07T17:05:45Z</time>
      </trkpt>
      <trkpt lat="61.20537392177" lon="14.527633802672">
        <ele>475.4</ele>
        <time>2015-02-07T17:05:48Z</time>
      </trkpt>
      <trkpt lat="61.205370904286" lon="14.527593150457">
        <ele>475.4</ele>
        <time>2015-02-07T17:05:49Z</time>
      </trkpt>
      <trkpt lat="61.20535296702" lon="14.527404557707">
        <ele>475.6</ele>
        <time>2015-02-07T17:05:53Z</time>
      </trkpt>
      <trkpt lat="61.205370233734" lon="14.527212528378">
        <ele>475.6</ele>
        <time>2015-02-07T17:05:57Z</time>
      </trkpt>
      <trkpt lat="61.205370988105" lon="14.5271654221">
        <ele>475.6</ele>
        <time>2015-02-07T17:05:58Z</time>
      </trkpt>
      <trkpt lat="61.205388087181" lon="14.526876330369">
        <ele>475.8</ele>
        <time>2015-02-07T17:06:02Z</time>
      </trkpt>
      <trkpt lat="61.205425805731" lon="14.526693102035">
        <ele>475.6</ele>
        <time>2015-02-07T17:06:05Z</time>
      </trkpt>
      <trkpt lat="61.205507529256" lon="14.526567457354">
        <ele>475.6</ele>
        <time>2015-02-07T17:06:08Z</time>
      </trkpt>
      <trkpt lat="61.205552037145" lon="14.526562679671">
        <ele>475.6</ele>
        <time>2015-02-07T17:06:09Z</time>
      </trkpt>
      <trkpt lat="61.205668377917" lon="14.526551783201">
        <ele>474.2</ele>
        <time>2015-02-07T17:06:12Z</time>
      </trkpt>
      <trkpt lat="61.205750017623" lon="14.526521356904">
        <ele>473.6</ele>
        <time>2015-02-07T17:06:15Z</time>
      </trkpt>
      <trkpt lat="61.205926791894" lon="14.526389844893">
        <ele>474</ele>
        <time>2015-02-07T17:06:21Z</time>
      </trkpt>
      <trkpt lat="61.206032320015" lon="14.526211980975">
        <ele>474</ele>
        <time>2015-02-07T17:06:25Z</time>
      </trkpt>
      <trkpt lat="61.206091831505" lon="14.525990447358">
        <ele>473.2</ele>
        <time>2015-02-07T17:06:30Z</time>
      </trkpt>
      <trkpt lat="61.206130555883" lon="14.525834124923">
        <ele>473</ele>
        <time>2015-02-07T17:06:34Z</time>
      </trkpt>
      <trkpt lat="61.206133238091" lon="14.525759023099">
        <ele>474.4</ele>
        <time>2015-02-07T17:06:37Z</time>
      </trkpt>
      <trkpt lat="61.206121419612" lon="14.525723986757">
        <ele>475.8</ele>
        <time>2015-02-07T17:06:40Z</time>
      </trkpt>
      <trkpt lat="61.206115468463" lon="14.525705546577">
        <ele>477.4</ele>
        <time>2015-02-07T17:06:42Z</time>
      </trkpt>
      <trkpt lat="61.206110858418" lon="14.52569775141">
        <ele>478.4</ele>
        <time>2015-02-07T17:06:44Z</time>
      </trkpt>
      <trkpt lat="61.206106416011" lon="14.525691716442">
        <ele>478.6</ele>
        <time>2015-02-07T17:06:45Z</time>
      </trkpt>
      <trkpt lat="61.205997618949" lon="14.52539767939">
        <ele>476.8</ele>
        <time>2015-02-07T17:07:04Z</time>
      </trkpt>
      <trkpt lat="61.205949842119" lon="14.525212942314">
        <ele>476.2</ele>
        <time>2015-02-07T17:07:09Z</time>
      </trkpt>
      <trkpt lat="61.20589611414" lon="14.525083693416">
        <ele>477</ele>
        <time>2015-02-07T17:07:13Z</time>
      </trkpt>
      <trkpt lat="61.205753118926" lon="14.524876241391">
        <ele>476</ele>
        <time>2015-02-07T17:07:17Z</time>
      </trkpt>
      <trkpt lat="61.205720764792" lon="14.524822932507">
        <ele>475.4</ele>
        <time>2015-02-07T17:07:18Z</time>
      </trkpt>
      <trkpt lat="61.205659996017" lon="14.524729306684">
        <ele>474.2</ele>
        <time>2015-02-07T17:07:20Z</time>
      </trkpt>
      <trkpt lat="61.20563878981" lon="14.524697204007">
        <ele>474</ele>
        <time>2015-02-07T17:07:21Z</time>
      </trkpt>
      <trkpt lat="61.205567459841" lon="14.524628723884">
        <ele>475.6</ele>
        <time>2015-02-07T17:07:25Z</time>
      </trkpt>
      <trkpt lat="61.205533345508" lon="14.52459804613">
        <ele>476.8</ele>
        <time>2015-02-07T17:07:27Z</time>
      </trkpt>
      <trkpt lat="61.205483054108" lon="14.52456619491">
        <ele>477.4</ele>
        <time>2015-02-07T17:07:30Z</time>
      </trkpt>
      <trkpt lat="61.205382555127" lon="14.524497379511">
        <ele>477.4</ele>
        <time>2015-02-07T17:07:34Z</time>
      </trkpt>
      <trkpt lat="61.205267220183" lon="14.524339296877">
        <ele>476.6</ele>
        <time>2015-02-07T17:07:37Z</time>
      </trkpt>
      <trkpt lat="61.205243331768" lon="14.524206192305">
        <ele>475.4</ele>
        <time>2015-02-07T17:07:39Z</time>
      </trkpt>
      <trkpt lat="61.205232016203" lon="14.524157661104">
        <ele>475</ele>
        <time>2015-02-07T17:07:40Z</time>
      </trkpt>
      <trkpt lat="61.205214162756" lon="14.524041152694">
        <ele>474.2</ele>
        <time>2015-02-07T17:07:43Z</time>
      </trkpt>
      <trkpt lat="61.205203685381" lon="14.523979126634">
        <ele>474.2</ele>
        <time>2015-02-07T17:07:44Z</time>
      </trkpt>
      <trkpt lat="61.205140485855" lon="14.523858343455">
        <ele>474</ele>
        <time>2015-02-07T17:07:48Z</time>
      </trkpt>
      <trkpt lat="61.205031353517" lon="14.523775446464">
        <ele>474.8</ele>
        <time>2015-02-07T17:07:53Z</time>
      </trkpt>
      <trkpt lat="61.20498919256" lon="14.523740074846">
        <ele>475.4</ele>
        <time>2015-02-07T17:07:55Z</time>
      </trkpt>
      <trkpt lat="61.204928507604" lon="14.523693052387">
        <ele>475.6</ele>
        <time>2015-02-07T17:07:58Z</time>
      </trkpt>
      <trkpt lat="61.204878970575" lon="14.523529521518">
        <ele>475.8</ele>
        <time>2015-02-07T17:08:02Z</time>
      </trkpt>
      <trkpt lat="61.204870672494" lon="14.523370013961">
        <ele>475.4</ele>
        <time>2015-02-07T17:08:06Z</time>
      </trkpt>
      <trkpt lat="61.204870588675" lon="14.523221905788">
        <ele>475.4</ele>
        <time>2015-02-07T17:08:09Z</time>
      </trkpt>
      <trkpt lat="61.204881568964" lon="14.523153090389">
        <ele>475.4</ele>
        <time>2015-02-07T17:08:11Z</time>
      </trkpt>
      <trkpt lat="61.204900763515" lon="14.523005904225">
        <ele>476</ele>
        <time>2015-02-07T17:08:15Z</time>
      </trkpt>
      <trkpt lat="61.204908977777" lon="14.522961312517">
        <ele>476.2</ele>
        <time>2015-02-07T17:08:16Z</time>
      </trkpt>
      <trkpt lat="61.204955916417" lon="14.522706838033">
        <ele>475.6</ele>
        <time>2015-02-07T17:08:19Z</time>
      </trkpt>
      <trkpt lat="61.205012326604" lon="14.522449178427">
        <ele>474.2</ele>
        <time>2015-02-07T17:08:23Z</time>
      </trkpt>
      <trkpt lat="61.205094469224" lon="14.52227542164">
        <ele>474.4</ele>
        <time>2015-02-07T17:08:27Z</time>
      </trkpt>
      <trkpt lat="61.205211564367" lon="14.522107280726">
        <ele>474.6</ele>
        <time>2015-02-07T17:08:31Z</time>
      </trkpt>
      <trkpt lat="61.205348189337" lon="14.521934781224">
        <ele>474.6</ele>
        <time>2015-02-07T17:08:36Z</time>
      </trkpt>
      <trkpt lat="61.205440054961" lon="14.521779967531">
        <ele>473.8</ele>
        <time>2015-02-07T17:08:40Z</time>
      </trkpt>
      <trkpt lat="61.205517922812" lon="14.521597074473">
        <ele>473.8</ele>
        <time>2015-02-07T17:08:45Z</time>
      </trkpt>
      <trkpt lat="61.205565112909" lon="14.521389287172">
        <ele>474.2</ele>
        <time>2015-02-07T17:08:49Z</time>
      </trkpt>
      <trkpt lat="61.20560861497" lon="14.521146631167">
        <ele>474</ele>
        <time>2015-02-07T17:08:53Z</time>
      </trkpt>
      <trkpt lat="61.205662929682" lon="14.520841613826">
        <ele>473.6</ele>
        <time>2015-02-07T17:08:57Z</time>
      </trkpt>
      <trkpt lat="61.205679190568" lon="14.520702725743">
        <ele>473.2</ele>
        <time>2015-02-07T17:08:59Z</time>
      </trkpt>
      <trkpt lat="61.205712885806" lon="14.520511534604">
        <ele>472.8</ele>
        <time>2015-02-07T17:09:02Z</time>
      </trkpt>
      <trkpt lat="61.20577876754" lon="14.520299891629">
        <ele>472.2</ele>
        <time>2015-02-07T17:09:06Z</time>
      </trkpt>
      <trkpt lat="61.205855797201" lon="14.520139545882">
        <ele>472.4</ele>
        <time>2015-02-07T17:09:10Z</time>
      </trkpt>
      <trkpt lat="61.205863005635" lon="14.520090344129">
        <ele>472.4</ele>
        <time>2015-02-07T17:09:11Z</time>
      </trkpt>
      <trkpt lat="61.205892174647" lon="14.520000657799">
        <ele>472.6</ele>
        <time>2015-02-07T17:09:13Z</time>
      </trkpt>
      <trkpt lat="61.205941879314" lon="14.51981617218">
        <ele>472.8</ele>
        <time>2015-02-07T17:09:17Z</time>
      </trkpt>
      <trkpt lat="61.206013879835" lon="14.51966194522">
        <ele>472.4</ele>
        <time>2015-02-07T17:09:21Z</time>
      </trkpt>
      <trkpt lat="61.206059812647" lon="14.51959824278">
        <ele>472.4</ele>
        <time>2015-02-07T17:09:25Z</time>
      </trkpt>
      <trkpt lat="61.206063500683" lon="14.519592040174">
        <ele>473.2</ele>
        <time>2015-02-07T17:09:29Z</time>
      </trkpt>
      <trkpt lat="61.206213117598" lon="14.519375451878">
        <ele>473</ele>
        <time>2015-02-07T17:09:41Z</time>
      </trkpt>
      <trkpt lat="61.206260223876" lon="14.519280317313">
        <ele>473.2</ele>
        <time>2015-02-07T17:09:44Z</time>
      </trkpt>
      <trkpt lat="61.206301127548" lon="14.519222482203">
        <ele>473.4</ele>
        <time>2015-02-07T17:09:46Z</time>
      </trkpt>
      <trkpt lat="61.206326189429" lon="14.519148805302">
        <ele>473.4</ele>
        <time>2015-02-07T17:09:48Z</time>
      </trkpt>
      <trkpt lat="61.206385533281" lon="14.519061130628">
        <ele>473.4</ele>
        <time>2015-02-07T17:09:51Z</time>
      </trkpt>
      <trkpt lat="61.206413696465" lon="14.519005307174">
        <ele>473.4</ele>
        <time>2015-02-07T17:09:52Z</time>
      </trkpt>
      <trkpt lat="61.206484355882" lon="14.518851080214">
        <ele>473</ele>
        <time>2015-02-07T17:09:56Z</time>
      </trkpt>
      <trkpt lat="61.206511680876" lon="14.518835238423">
        <ele>473</ele>
        <time>2015-02-07T17:09:57Z</time>
      </trkpt>
      <trkpt lat="61.20652308026" lon="14.518795843493">
        <ele>473.4</ele>
        <time>2015-02-07T17:09:59Z</time>
      </trkpt>
      <trkpt lat="61.206544370286" lon="14.518735242356">
        <ele>474.8</ele>
        <time>2015-02-07T17:10:02Z</time>
      </trkpt>
      <trkpt lat="61.206546968675" lon="14.518664834396">
        <ele>475.6</ele>
        <time>2015-02-07T17:10:04Z</time>
      </trkpt>
      <trkpt lat="61.206540179336" lon="14.518605322906">
        <ele>476</ele>
        <time>2015-02-07T17:10:05Z</time>
      </trkpt>
      <trkpt lat="61.206528696133" lon="14.518515888033">
        <ele>476.2</ele>
        <time>2015-02-07T17:10:07Z</time>
      </trkpt>
      <trkpt lat="61.206518302577" lon="14.518377754321">
        <ele>476.2</ele>
        <time>2015-02-07T17:10:10Z</time>
      </trkpt>
      <trkpt lat="61.206527019753" lon="14.518314806252">
        <ele>476.4</ele>
        <time>2015-02-07T17:10:11Z</time>
      </trkpt>
      <trkpt lat="61.206567839606" lon="14.518142642026">
        <ele>476.6</ele>
        <time>2015-02-07T17:10:14Z</time>
      </trkpt>
      <trkpt lat="61.206635816815" lon="14.51797969789">
        <ele>476.8</ele>
        <time>2015-02-07T17:10:18Z</time>
      </trkpt>
      <trkpt lat="61.20669239464" lon="14.517899147831">
        <ele>477</ele>
        <time>2015-02-07T17:10:20Z</time>
      </trkpt>
      <trkpt lat="61.206732124846" lon="14.517849191707">
        <ele>476.8</ele>
        <time>2015-02-07T17:10:21Z</time>
      </trkpt>
      <trkpt lat="61.206770765405" lon="14.517783142335">
        <ele>476.8</ele>
        <time>2015-02-07T17:10:22Z</time>
      </trkpt>
      <trkpt lat="61.206897248276" lon="14.517603769675">
        <ele>475.8</ele>
        <time>2015-02-07T17:10:26Z</time>
      </trkpt>
      <trkpt lat="61.207028173554" lon="14.517438310969">
        <ele>475.8</ele>
        <time>2015-02-07T17:10:30Z</time>
      </trkpt>
      <trkpt lat="61.207197404115" lon="14.517234211704">
        <ele>476.2</ele>
        <time>2015-02-07T17:10:35Z</time>
      </trkpt>
      <trkpt lat="61.20727158393" lon="14.517026172946">
        <ele>475.8</ele>
        <time>2015-02-07T17:10:39Z</time>
      </trkpt>
      <trkpt lat="61.207275607242" lon="14.516914526038">
        <ele>475.2</ele>
        <time>2015-02-07T17:10:41Z</time>
      </trkpt>
      <trkpt lat="61.207275271966" lon="14.516823247147">
        <ele>475</ele>
        <time>2015-02-07T17:10:43Z</time>
      </trkpt>
      <trkpt lat="61.207294466517" lon="14.516495933952">
        <ele>476.6</ele>
        <time>2015-02-07T17:10:48Z</time>
      </trkpt>
      <trkpt lat="61.207313661068" lon="14.516407924002">
        <ele>476.6</ele>
        <time>2015-02-07T17:10:50Z</time>
      </trkpt>
      <trkpt lat="61.207333526171" lon="14.516347239046">
        <ele>476.6</ele>
        <time>2015-02-07T17:10:52Z</time>
      </trkpt>
      <trkpt lat="61.207369149246" lon="14.516295187447">
        <ele>477</ele>
        <time>2015-02-07T17:10:54Z</time>
      </trkpt>
      <trkpt lat="61.207401335742" lon="14.516250847196">
        <ele>477.4</ele>
        <time>2015-02-07T17:10:56Z</time>
      </trkpt>
      <trkpt lat="61.207509043157" lon="14.516195778113">
        <ele>477</ele>
        <time>2015-02-07T17:11:00Z</time>
      </trkpt>
      <trkpt lat="61.207603674808" lon="14.516062924998">
        <ele>476</ele>
        <time>2015-02-07T17:11:04Z</time>
      </trkpt>
      <trkpt lat="61.207613649269" lon="14.516021015498">
        <ele>475.8</ele>
        <time>2015-02-07T17:11:05Z</time>
      </trkpt>
      <trkpt lat="61.207667963981" lon="14.51582890235">
        <ele>475</ele>
        <time>2015-02-07T17:11:09Z</time>
      </trkpt>
      <trkpt lat="61.207726972557" lon="14.515608123104">
        <ele>475</ele>
        <time>2015-02-07T17:11:14Z</time>
      </trkpt>
      <trkpt lat="61.207738791036" lon="14.515575517513">
        <ele>474.8</ele>
        <time>2015-02-07T17:11:15Z</time>
      </trkpt>
      <trkpt lat="61.207774749387" lon="14.515478203654">
        <ele>474.6</ele>
        <time>2015-02-07T17:11:18Z</time>
      </trkpt>
      <trkpt lat="61.207806600607" lon="14.515436797068">
        <ele>474.2</ele>
        <time>2015-02-07T17:11:20Z</time>
      </trkpt>
      <trkpt lat="61.207830405203" lon="14.515396144853">
        <ele>473.8</ele>
        <time>2015-02-07T17:11:22Z</time>
      </trkpt>
      <trkpt lat="61.207840128207" lon="14.515379967786">
        <ele>473.6</ele>
        <time>2015-02-07T17:11:23Z</time>
      </trkpt>
      <trkpt lat="61.207893437091" lon="14.515299753003">
        <ele>475</ele>
        <time>2015-02-07T17:11:27Z</time>
      </trkpt>
      <trkpt lat="61.207931071822" lon="14.515263710833">
        <ele>475.4</ele>
        <time>2015-02-07T17:11:29Z</time>
      </trkpt>
      <trkpt lat="61.20793962136" lon="14.515238984228">
        <ele>475.8</ele>
        <time>2015-02-07T17:11:30Z</time>
      </trkpt>
      <trkpt lat="61.208000557773" lon="14.515179808014">
        <ele>476</ele>
        <time>2015-02-07T17:11:33Z</time>
      </trkpt>
      <trkpt lat="61.208096279071" lon="14.51509967705">
        <ele>476</ele>
        <time>2015-02-07T17:11:39Z</time>
      </trkpt>
      <trkpt lat="61.208138859123" lon="14.515080566318">
        <ele>476.2</ele>
        <time>2015-02-07T17:11:41Z</time>
      </trkpt>
      <trkpt lat="61.208192587102" lon="14.515083080888">
        <ele>476.4</ele>
        <time>2015-02-07T17:11:43Z</time>
      </trkpt>
      <trkpt lat="61.208303479639" lon="14.515192548502">
        <ele>476.4</ele>
        <time>2015-02-07T17:11:48Z</time>
      </trkpt>
      <trkpt lat="61.208341030551" lon="14.515262788824">
        <ele>476.8</ele>
        <time>2015-02-07T17:11:50Z</time>
      </trkpt>
      <trkpt lat="61.208394507073" lon="14.515326323626">
        <ele>477</ele>
        <time>2015-02-07T17:11:52Z</time>
      </trkpt>
      <trkpt lat="61.208446223396" lon="14.515441574751">
        <ele>477</ele>
        <time>2015-02-07T17:11:54Z</time>
      </trkpt>
      <trkpt lat="61.208509422922" lon="14.51552128662">
        <ele>476.8</ele>
        <time>2015-02-07T17:11:56Z</time>
      </trkpt>
      <trkpt lat="61.208703883002" lon="14.515686158593">
        <ele>477</ele>
        <time>2015-02-07T17:12:01Z</time>
      </trkpt>
      <trkpt lat="61.208787785821" lon="14.515639722867">
        <ele>476.4</ele>
        <time>2015-02-07T17:12:04Z</time>
      </trkpt>
      <trkpt lat="61.208906389706" lon="14.51555062327">
        <ele>476.8</ele>
        <time>2015-02-07T17:12:08Z</time>
      </trkpt>
      <trkpt lat="61.209056006621" lon="14.515415087947">
        <ele>476.8</ele>
        <time>2015-02-07T17:12:13Z</time>
      </trkpt>
      <trkpt lat="61.209218447843" lon="14.515263710833">
        <ele>476.6</ele>
        <time>2015-02-07T17:12:18Z</time>
      </trkpt>
      <trkpt lat="61.209390695888" lon="14.515052319315">
        <ele>475.6</ele>
        <time>2015-02-07T17:12:23Z</time>
      </trkpt>
      <trkpt lat="61.209452638129" lon="14.514873617207">
        <ele>475.2</ele>
        <time>2015-02-07T17:12:26Z</time>
      </trkpt>
      <trkpt lat="61.209472335594" lon="14.514840005788">
        <ele>475</ele>
        <time>2015-02-07T17:12:27Z</time>
      </trkpt>
      <trkpt lat="61.209544671391" lon="14.514628362813">
        <ele>475.6</ele>
        <time>2015-02-07T17:12:31Z</time>
      </trkpt>
      <trkpt lat="61.209678446515" lon="14.514477907708">
        <ele>476</ele>
        <time>2015-02-07T17:12:35Z</time>
      </trkpt>
      <trkpt lat="61.209823621023" lon="14.514367685723">
        <ele>475.8</ele>
        <time>2015-02-07T17:12:40Z</time>
      </trkpt>
      <trkpt lat="61.209858154451" lon="14.514314376839">
        <ele>476.2</ele>
        <time>2015-02-07T17:12:41Z</time>
      </trkpt>
      <trkpt lat="61.209919593778" lon="14.51424220868">
        <ele>476.2</ele>
        <time>2015-02-07T17:12:43Z</time>
      </trkpt>
      <trkpt lat="61.209959407803" lon="14.5141650952">
        <ele>476.2</ele>
        <time>2015-02-07T17:12:45Z</time>
      </trkpt>
      <trkpt lat="61.210000982027" lon="14.514114468524">
        <ele>476</ele>
        <time>2015-02-07T17:12:47Z</time>
      </trkpt>
      <trkpt lat="61.210056386386" lon="14.514023021995">
        <ele>477</ele>
        <time>2015-02-07T17:12:51Z</time>
      </trkpt>
      <trkpt lat="61.210061834621" lon="14.514023021995">
        <ele>477</ele>
        <time>2015-02-07T17:12:52Z</time>
      </trkpt>
      <trkpt lat="61.210050602875" lon="14.514023021995">
        <ele>477</ele>
        <time>2015-02-07T17:12:53Z</time>
      </trkpt>
      <trkpt lat="61.210034006713" lon="14.514027212945">
        <ele>477</ele>
        <time>2015-02-07T17:12:54Z</time>
      </trkpt>
      <trkpt lat="61.210022020596" lon="14.514050514627">
        <ele>477.4</ele>
        <time>2015-02-07T17:12:55Z</time>
      </trkpt>
      <trkpt lat="61.209947337867" lon="14.514204741587">
        <ele>477</ele>
        <time>2015-02-07T17:12:59Z</time>
      </trkpt>
      <trkpt lat="61.209851029836" lon="14.51437212813">
        <ele>476.8</ele>
        <time>2015-02-07T17:13:03Z</time>
      </trkpt>
      <trkpt lat="61.209690097356" lon="14.514557284301">
        <ele>477.2</ele>
        <time>2015-02-07T17:13:08Z</time>
      </trkpt>
      <trkpt lat="61.209581132656" lon="14.514695837108">
        <ele>477</ele>
        <time>2015-02-07T17:13:13Z</time>
      </trkpt>
      <trkpt lat="61.209578366629" lon="14.514711008347">
        <ele>477</ele>
        <time>2015-02-07T17:13:14Z</time>
      </trkpt>
      <trkpt lat="61.209588089633" lon="14.514713020003">
        <ele>477.2</ele>
        <time>2015-02-07T17:13:16Z</time>
      </trkpt>
      <trkpt lat="61.209600662483" lon="14.514694915099">
        <ele>477.4</ele>
        <time>2015-02-07T17:13:17Z</time>
      </trkpt>
      <trkpt lat="61.20965874905" lon="14.514627356985">
        <ele>477.2</ele>
        <time>2015-02-07T17:13:20Z</time>
      </trkpt>
      <trkpt lat="61.209714237228" lon="14.514567007305">
        <ele>476.6</ele>
        <time>2015-02-07T17:13:22Z</time>
      </trkpt>
      <trkpt lat="61.209780957152" lon="14.514498611001">
        <ele>475.8</ele>
        <time>2015-02-07T17:13:24Z</time>
      </trkpt>
      <trkpt lat="61.209878019554" lon="14.514397106192">
        <ele>475.8</ele>
        <time>2015-02-07T17:13:27Z</time>
      </trkpt>
      <trkpt lat="61.209970723368" lon="14.514234748789">
        <ele>475.6</ele>
        <time>2015-02-07T17:13:31Z</time>
      </trkpt>
      <trkpt lat="61.210086896502" lon="14.514052610102">
        <ele>476</ele>
        <time>2015-02-07T17:13:35Z</time>
      </trkpt>
      <trkpt lat="61.210222599463" lon="14.513964516333">
        <ele>475.2</ele>
        <time>2015-02-07T17:13:39Z</time>
      </trkpt>
      <trkpt lat="61.210251684656" lon="14.513962504677">
        <ele>474.8</ele>
        <time>2015-02-07T17:13:40Z</time>
      </trkpt>
      <trkpt lat="61.210286637179" lon="14.513987734196">
        <ele>475</ele>
        <time>2015-02-07T17:13:41Z</time>
      </trkpt>
      <trkpt lat="61.210313543078" lon="14.513993182431">
        <ele>475</ele>
        <time>2015-02-07T17:13:42Z</time>
      </trkpt>
      <trkpt lat="61.210425776719" lon="14.514014053362">
        <ele>475.4</ele>
        <time>2015-02-07T17:13:47Z</time>
      </trkpt>
      <trkpt lat="61.210449665134" lon="14.513994523535">
        <ele>475.8</ele>
        <time>2015-02-07T17:13:48Z</time>
      </trkpt>
      <trkpt lat="61.210481683992" lon="14.51399661901">
        <ele>476</ele>
        <time>2015-02-07T17:13:49Z</time>
      </trkpt>
      <trkpt lat="61.210572795245" lon="14.514003911263">
        <ele>476.4</ele>
        <time>2015-02-07T17:13:51Z</time>
      </trkpt>
      <trkpt lat="61.210641275368" lon="14.513992930974">
        <ele>475.8</ele>
        <time>2015-02-07T17:13:54Z</time>
      </trkpt>
      <trkpt lat="61.210735068829" lon="14.514008521308">
        <ele>476.8</ele>
        <time>2015-02-07T17:13:58Z</time>
      </trkpt>
      <trkpt lat="61.210773709388" lon="14.514028386411">
        <ele>477.2</ele>
        <time>2015-02-07T17:13:59Z</time>
      </trkpt>
      <trkpt lat="61.210896252766" lon="14.514067446065">
        <ele>476.8</ele>
        <time>2015-02-07T17:14:02Z</time>
      </trkpt>
      <trkpt lat="61.210976886644" lon="14.514101560398">
        <ele>476.2</ele>
        <time>2015-02-07T17:14:04Z</time>
      </trkpt>
      <trkpt lat="61.211088198276" lon="14.514048502971">
        <ele>475.6</ele>
        <time>2015-02-07T17:14:07Z</time>
      </trkpt>
      <trkpt lat="61.211197498252" lon="14.514019753054">
        <ele>475.6</ele>
        <time>2015-02-07T17:14:11Z</time>
      </trkpt>
      <trkpt lat="61.211378128197" lon="14.514099884018">
        <ele>475</ele>
        <time>2015-02-07T17:14:17Z</time>
      </trkpt>
      <trkpt lat="61.211536127012" lon="14.514136932016">
        <ele>474</ele>
        <time>2015-02-07T17:14:23Z</time>
      </trkpt>
      <trkpt lat="61.211646600454" lon="14.514114049429">
        <ele>475.2</ele>
        <time>2015-02-07T17:14:28Z</time>
      </trkpt>
      <trkpt lat="61.211766293986" lon="14.514066272599">
        <ele>475.2</ele>
        <time>2015-02-07T17:14:33Z</time>
      </trkpt>
      <trkpt lat="61.211847179321" lon="14.514035930121">
        <ele>475.6</ele>
        <time>2015-02-07T17:14:37Z</time>
      </trkpt>
      <trkpt lat="61.211938290574" lon="14.514037857958">
        <ele>476</ele>
        <time>2015-02-07T17:14:41Z</time>
      </trkpt>
      <trkpt lat="61.211958323315" lon="14.514041965089">
        <ele>475.8</ele>
        <time>2015-02-07T17:14:42Z</time>
      </trkpt>
      <trkpt lat="61.212060833952" lon="14.514100806027">
        <ele>475.4</ele>
        <time>2015-02-07T17:14:46Z</time>
      </trkpt>
      <trkpt lat="61.212141970744" lon="14.514099129647">
        <ele>475.6</ele>
        <time>2015-02-07T17:14:50Z</time>
      </trkpt>
      <trkpt lat="61.212193687067" lon="14.514101560398">
        <ele>475.8</ele>
        <time>2015-02-07T17:14:54Z</time>
      </trkpt>
      <trkpt lat="61.212192094506" lon="14.514104242606">
        <ele>476</ele>
        <time>2015-02-07T17:14:55Z</time>
      </trkpt>
      <trkpt lat="61.212352859348" lon="14.514035259569">
        <ele>475.6</ele>
        <time>2015-02-07T17:15:09Z</time>
      </trkpt>
      <trkpt lat="61.212399714169" lon="14.513997541019">
        <ele>475.8</ele>
        <time>2015-02-07T17:15:11Z</time>
      </trkpt>
      <trkpt lat="61.212461404953" lon="14.513956888804">
        <ele>476.4</ele>
        <time>2015-02-07T17:15:15Z</time>
      </trkpt>
      <trkpt lat="61.212552013292" lon="14.513897880228">
        <ele>477</ele>
        <time>2015-02-07T17:15:19Z</time>
      </trkpt>
      <trkpt lat="61.212573303318" lon="14.513888408681">
        <ele>477</ele>
        <time>2015-02-07T17:15:20Z</time>
      </trkpt>
      <trkpt lat="61.212639939423" lon="14.513862592429">
        <ele>476.8</ele>
        <time>2015-02-07T17:15:23Z</time>
      </trkpt>
      <trkpt lat="61.212757118385" lon="14.513839542204">
        <ele>476.2</ele>
        <time>2015-02-07T17:15:27Z</time>
      </trkpt>
      <trkpt lat="61.21285392933" lon="14.51381892273">
        <ele>476.2</ele>
        <time>2015-02-07T17:15:31Z</time>
      </trkpt>
      <trkpt lat="61.212904723644" lon="14.513821102024">
        <ele>476</ele>
        <time>2015-02-07T17:15:33Z</time>
      </trkpt>
      <trkpt lat="61.212948560981" lon="14.513848846113">
        <ele>475.8</ele>
        <time>2015-02-07T17:15:35Z</time>
      </trkpt>
      <trkpt lat="61.213019388036" lon="14.513914308752">
        <ele>476.8</ele>
        <time>2015-02-07T17:15:39Z</time>
      </trkpt>
      <trkpt lat="61.213046964487" lon="14.513950099465">
        <ele>477.4</ele>
        <time>2015-02-07T17:15:40Z</time>
      </trkpt>
      <trkpt lat="61.2131079009" lon="14.514024782194">
        <ele>477.4</ele>
        <time>2015-02-07T17:15:43Z</time>
      </trkpt>
      <trkpt lat="61.213150480952" lon="14.514086724435">
        <ele>477</ele>
        <time>2015-02-07T17:15:45Z</time>
      </trkpt>
      <trkpt lat="61.213189624425" lon="14.514158222042">
        <ele>477</ele>
        <time>2015-02-07T17:15:47Z</time>
      </trkpt>
      <trkpt lat="61.213292218881" lon="14.514254697711">
        <ele>476.8</ele>
        <time>2015-02-07T17:15:52Z</time>
      </trkpt>
      <trkpt lat="61.21338701817" lon="14.514327368784">
        <ele>476.4</ele>
        <time>2015-02-07T17:15:56Z</time>
      </trkpt>
      <trkpt lat="61.213436555199" lon="14.514392915242">
        <ele>476.2</ele>
        <time>2015-02-07T17:15:58Z</time>
      </trkpt>
      <trkpt lat="61.213478883794" lon="14.514462149736">
        <ele>476</ele>
        <time>2015-02-07T17:16:00Z</time>
      </trkpt>
      <trkpt lat="61.21360997671" lon="14.514661471318">
        <ele>476.4</ele>
        <time>2015-02-07T17:16:06Z</time>
      </trkpt>
      <trkpt lat="61.213662028309" lon="14.514748391621">
        <ele>476.2</ele>
        <time>2015-02-07T17:16:09Z</time>
      </trkpt>
      <trkpt lat="61.21370636856" lon="14.514831120974">
        <ele>476.4</ele>
        <time>2015-02-07T17:16:11Z</time>
      </trkpt>
      <trkpt lat="61.213745428214" lon="14.514892392663">
        <ele>476.6</ele>
        <time>2015-02-07T17:16:13Z</time>
      </trkpt>
      <trkpt lat="61.213811896681" lon="14.515020803371">
        <ele>476.8</ele>
        <time>2015-02-07T17:16:17Z</time>
      </trkpt>
      <trkpt lat="61.213877694596" lon="14.515233703631">
        <ele>477</ele>
        <time>2015-02-07T17:16:22Z</time>
      </trkpt>
      <trkpt lat="61.213927231625" lon="14.515400000527">
        <ele>477.2</ele>
        <time>2015-02-07T17:16:26Z</time>
      </trkpt>
      <trkpt lat="61.21393267986" lon="14.515421122915">
        <ele>477</ele>
        <time>2015-02-07T17:16:27Z</time>
      </trkpt>
      <trkpt lat="61.213999651241" lon="14.515641734523">
        <ele>476.8</ele>
        <time>2015-02-07T17:16:32Z</time>
      </trkpt>
      <trkpt lat="61.214046757519" lon="14.515774084724">
        <ele>476.6</ele>
        <time>2015-02-07T17:16:36Z</time>
      </trkpt>
      <trkpt lat="61.21409780329" lon="14.515912134617">
        <ele>476.6</ele>
        <time>2015-02-07T17:16:39Z</time>
      </trkpt>
      <trkpt lat="61.214191512932" lon="14.516097626064">
        <ele>476</ele>
        <time>2015-02-07T17:16:43Z</time>
      </trkpt>
      <trkpt lat="61.214312882844" lon="14.516249589911">
        <ele>476</ele>
        <time>2015-02-07T17:16:48Z</time>
      </trkpt>
      <trkpt lat="61.214393013808" lon="14.516361655914">
        <ele>476.4</ele>
        <time>2015-02-07T17:16:52Z</time>
      </trkpt>
      <trkpt lat="61.214456800067" lon="14.516494760486">
        <ele>476</ele>
        <time>2015-02-07T17:16:56Z</time>
      </trkpt>
      <trkpt lat="61.214525447828" lon="14.516651837292">
        <ele>475.6</ele>
        <time>2015-02-07T17:17:00Z</time>
      </trkpt>
      <trkpt lat="61.214608931552" lon="14.516773123385">
        <ele>475.6</ele>
        <time>2015-02-07T17:17:04Z</time>
      </trkpt>
      <trkpt lat="61.214685625937" lon="14.51682383388">
        <ele>475.8</ele>
        <time>2015-02-07T17:17:07Z</time>
      </trkpt>
      <trkpt lat="61.214813449912" lon="14.516859373136">
        <ele>475.6</ele>
        <time>2015-02-07T17:17:12Z</time>
      </trkpt>
      <trkpt lat="61.214927862847" lon="14.516885189388">
        <ele>476.4</ele>
        <time>2015-02-07T17:17:17Z</time>
      </trkpt>
      <trkpt lat="61.214959294972" lon="14.516902204645">
        <ele>477.4</ele>
        <time>2015-02-07T17:17:19Z</time>
      </trkpt>
      <trkpt lat="61.214986787604" lon="14.516909077803">
        <ele>478.4</ele>
        <time>2015-02-07T17:17:21Z</time>
      </trkpt>
      <trkpt lat="61.215044706533" lon="14.516937995358">
        <ele>479.4</ele>
        <time>2015-02-07T17:17:26Z</time>
      </trkpt>
      <trkpt lat="61.215051914967" lon="14.51694285686">
        <ele>479.6</ele>
        <time>2015-02-07T17:17:27Z</time>
      </trkpt>
      <trkpt lat="61.215072282984" lon="14.516949730018">
        <ele>480.2</ele>
        <time>2015-02-07T17:17:31Z</time>
      </trkpt>
      <trkpt lat="61.215245955952" lon="14.51707948183">
        <ele>479.2</ele>
        <time>2015-02-07T17:17:54Z</time>
      </trkpt>
      <trkpt lat="61.215331032237" lon="14.517125247004">
        <ele>478.6</ele>
        <time>2015-02-07T17:17:57Z</time>
      </trkpt>
      <trkpt lat="61.215393393573" lon="14.517172688558">
        <ele>477.8</ele>
        <time>2015-02-07T17:17:59Z</time>
      </trkpt>
      <trkpt lat="61.215473440718" lon="14.517202276665">
        <ele>477.6</ele>
        <time>2015-02-07T17:18:02Z</time>
      </trkpt>
      <trkpt lat="61.215541417927" lon="14.517220046293">
        <ele>477.8</ele>
        <time>2015-02-07T17:18:04Z</time>
      </trkpt>
      <trkpt lat="61.215644766754" lon="14.517224991614">
        <ele>477.8</ele>
        <time>2015-02-07T17:18:08Z</time>
      </trkpt>
      <trkpt lat="61.215729172487" lon="14.517136730207">
        <ele>477.6</ele>
        <time>2015-02-07T17:18:12Z</time>
      </trkpt>
      <trkpt lat="61.215755659291" lon="14.51703841052">
        <ele>477.6</ele>
        <time>2015-02-07T17:18:14Z</time>
      </trkpt>
      <trkpt lat="61.215771333444" lon="14.517007146033">
        <ele>477.8</ele>
        <time>2015-02-07T17:18:15Z</time>
      </trkpt>
      <trkpt lat="61.215805783053" lon="14.516836490549">
        <ele>477.8</ele>
        <time>2015-02-07T17:18:19Z</time>
      </trkpt>
      <trkpt lat="61.21581106365" lon="14.516669439282">
        <ele>477.8</ele>
        <time>2015-02-07T17:18:23Z</time>
      </trkpt>
      <trkpt lat="61.215793880755" lon="14.516592577259">
        <ele>477.8</ele>
        <time>2015-02-07T17:18:25Z</time>
      </trkpt>
      <trkpt lat="61.21575909587" lon="14.516538346366">
        <ele>478</ele>
        <time>2015-02-07T17:18:27Z</time>
      </trkpt>
      <trkpt lat="61.215683994046" lon="14.516458969773">
        <ele>478.2</ele>
        <time>2015-02-07T17:18:31Z</time>
      </trkpt>
      <trkpt lat="61.215585841997" lon="14.516366433597">
        <ele>478.4</ele>
        <time>2015-02-07T17:18:36Z</time>
      </trkpt>
      <trkpt lat="61.215508979974" lon="14.516245566599">
        <ele>478.2</ele>
        <time>2015-02-07T17:18:40Z</time>
      </trkpt>
      <trkpt lat="61.215478553677" lon="14.516152611328">
        <ele>478</ele>
        <time>2015-02-07T17:18:43Z</time>
      </trkpt>
      <trkpt lat="61.215440667489" lon="14.516020177308">
        <ele>478</ele>
        <time>2015-02-07T17:18:46Z</time>
      </trkpt>
      <trkpt lat="61.215429268105" lon="14.515999641653">
        <ele>478.2</ele>
        <time>2015-02-07T17:18:47Z</time>
      </trkpt>
      <trkpt lat="61.21542801082" lon="14.515934849566">
        <ele>478.4</ele>
        <time>2015-02-07T17:18:48Z</time>
      </trkpt>
      <trkpt lat="61.215419377463" lon="14.51584315158">
        <ele>478.2</ele>
        <time>2015-02-07T17:18:50Z</time>
      </trkpt>
      <trkpt lat="61.215394567039" lon="14.515664114196">
        <ele>478</ele>
        <time>2015-02-07T17:18:54Z</time>
      </trkpt>
      <trkpt lat="61.215382413284" lon="14.51561851666">
        <ele>478.8</ele>
        <time>2015-02-07T17:18:57Z</time>
      </trkpt>
      <trkpt lat="61.215382078008" lon="14.515619019574">
        <ele>479.2</ele>
        <time>2015-02-07T17:18:58Z</time>
      </trkpt>
      <trkpt lat="61.215256600965" lon="14.51522792012">
        <ele>479.6</ele>
        <time>2015-02-07T17:19:39Z</time>
      </trkpt>
      <trkpt lat="61.215166830816" lon="14.514932961059">
        <ele>478.4</ele>
        <time>2015-02-07T17:19:43Z</time>
      </trkpt>
      <trkpt lat="61.215134141406" lon="14.514842436539">
        <ele>477.6</ele>
        <time>2015-02-07T17:19:45Z</time>
      </trkpt>
      <trkpt lat="61.21510446948" lon="14.514731544002">
        <ele>477</ele>
        <time>2015-02-07T17:19:47Z</time>
      </trkpt>
      <trkpt lat="61.215060296867" lon="14.514577568499">
        <ele>477.2</ele>
        <time>2015-02-07T17:19:51Z</time>
      </trkpt>
      <trkpt lat="61.21504160523" lon="14.514386544998">
        <ele>477.4</ele>
        <time>2015-02-07T17:19:55Z</time>
      </trkpt>
      <trkpt lat="61.215029619113" lon="14.514212955849">
        <ele>477.2</ele>
        <time>2015-02-07T17:19:59Z</time>
      </trkpt>
      <trkpt lat="61.215048897483" lon="14.513969461654">
        <ele>476.6</ele>
        <time>2015-02-07T17:20:04Z</time>
      </trkpt>
      <trkpt lat="61.215084604377" lon="14.513818168359">
        <ele>476.8</ele>
        <time>2015-02-07T17:20:08Z</time>
      </trkpt>
      <trkpt lat="61.215122658203" lon="14.513702079044">
        <ele>477.2</ele>
        <time>2015-02-07T17:20:13Z</time>
      </trkpt>
      <trkpt lat="61.215141852754" lon="14.513671485109">
        <ele>477.2</ele>
        <time>2015-02-07T17:20:14Z</time>
      </trkpt>
      <trkpt lat="61.215175631811" lon="14.513616248388">
        <ele>477</ele>
        <time>2015-02-07T17:20:17Z</time>
      </trkpt>
      <trkpt lat="61.215237993147" lon="14.513527819343">
        <ele>477.4</ele>
        <time>2015-02-07T17:20:21Z</time>
      </trkpt>
      <trkpt lat="61.215350981159" lon="14.513435953719">
        <ele>477</ele>
        <time>2015-02-07T17:20:26Z</time>
      </trkpt>
      <trkpt lat="61.215430441571" lon="14.513369736709">
        <ele>477</ele>
        <time>2015-02-07T17:20:30Z</time>
      </trkpt>
      <trkpt lat="61.215500262798" lon="14.513325480277">
        <ele>477.6</ele>
        <time>2015-02-07T17:20:33Z</time>
      </trkpt>
      <trkpt lat="61.215550805655" lon="14.513330174141">
        <ele>478</ele>
        <time>2015-02-07T17:20:35Z</time>
      </trkpt>
      <trkpt lat="61.215639569976" lon="14.51344676637">
        <ele>477.8</ele>
        <time>2015-02-07T17:20:39Z</time>
      </trkpt>
      <trkpt lat="61.215726155003" lon="14.513536787976">
        <ele>477.6</ele>
        <time>2015-02-07T17:20:43Z</time>
      </trkpt>
      <trkpt lat="61.215809974003" lon="14.513578194562">
        <ele>477.6</ele>
        <time>2015-02-07T17:20:47Z</time>
      </trkpt>
      <trkpt lat="61.215905360025" lon="14.513600490416">
        <ele>478.2</ele>
        <time>2015-02-07T17:20:51Z</time>
      </trkpt>
      <trkpt lat="61.215998985848" lon="14.513585402996">
        <ele>477.8</ele>
        <time>2015-02-07T17:20:55Z</time>
      </trkpt>
      <trkpt lat="61.216102334675" lon="14.513639130975">
        <ele>477.6</ele>
        <time>2015-02-07T17:20:59Z</time>
      </trkpt>
      <trkpt lat="61.216197050145" lon="14.513701743768">
        <ele>477.8</ele>
        <time>2015-02-07T17:21:03Z</time>
      </trkpt>
      <trkpt lat="61.216306853035" lon="14.513830489752">
        <ele>477.2</ele>
        <time>2015-02-07T17:21:08Z</time>
      </trkpt>
      <trkpt lat="61.216414308993" lon="14.513989326757">
        <ele>477.8</ele>
        <time>2015-02-07T17:21:13Z</time>
      </trkpt>
      <trkpt lat="61.216502989495" lon="14.51411396561">
        <ele>477.8</ele>
        <time>2015-02-07T17:21:17Z</time>
      </trkpt>
      <trkpt lat="61.216618575896" lon="14.514233156228">
        <ele>477.8</ele>
        <time>2015-02-07T17:21:22Z</time>
      </trkpt>
      <trkpt lat="61.216730641899" lon="14.51428411818">
        <ele>477.6</ele>
        <time>2015-02-07T17:21:27Z</time>
      </trkpt>
      <trkpt lat="61.216789818113" lon="14.514241454309">
        <ele>477</ele>
        <time>2015-02-07T17:21:30Z</time>
      </trkpt>
      <trkpt lat="61.216797697099" lon="14.514227205079">
        <ele>477</ele>
        <time>2015-02-07T17:21:31Z</time>
      </trkpt>
      <trkpt lat="61.216847485585" lon="14.514097872362">
        <ele>477.6</ele>
        <time>2015-02-07T17:21:35Z</time>
      </trkpt>
      <trkpt lat="61.216846731214" lon="14.514073648671">
        <ele>477.6</ele>
        <time>2015-02-07T17:21:36Z</time>
      </trkpt>
      <trkpt lat="61.216856538037" lon="14.513994774992">
        <ele>477.4</ele>
        <time>2015-02-07T17:21:39Z</time>
      </trkpt>
      <trkpt lat="61.216858465874" lon="14.513892012898">
        <ele>477.6</ele>
        <time>2015-02-07T17:21:43Z</time>
      </trkpt>
      <trkpt lat="61.216857711503" lon="14.513742731259">
        <ele>477.8</ele>
        <time>2015-02-07T17:21:48Z</time>
      </trkpt>
      <trkpt lat="61.216852263268" lon="14.51358758229">
        <ele>478</ele>
        <time>2015-02-07T17:21:52Z</time>
      </trkpt>
      <trkpt lat="61.216873301837" lon="14.513420195747">
        <ele>478</ele>
        <time>2015-02-07T17:21:56Z</time>
      </trkpt>
      <trkpt lat="61.216891909655" lon="14.51333444891">
        <ele>477.8</ele>
        <time>2015-02-07T17:21:59Z</time>
      </trkpt>
      <trkpt lat="61.216897609347" lon="14.513316595463">
        <ele>477.8</ele>
        <time>2015-02-07T17:22:00Z</time>
      </trkpt>
      <trkpt lat="61.216962317615" lon="14.513193884447">
        <ele>478.6</ele>
        <time>2015-02-07T17:22:06Z</time>
      </trkpt>
      <trkpt lat="61.216972711171" lon="14.513177539742">
        <ele>479</ele>
        <time>2015-02-07T17:22:07Z</time>
      </trkpt>
      <trkpt lat="61.216987714772" lon="14.513146359074">
        <ele>480.2</ele>
        <time>2015-02-07T17:22:09Z</time>
      </trkpt>
      <trkpt lat="61.217005149124" lon="14.513112496198">
        <ele>480.8</ele>
        <time>2015-02-07T17:22:11Z</time>
      </trkpt>
      <trkpt lat="61.217006154952" lon="14.513105371583">
        <ele>481.2</ele>
        <time>2015-02-07T17:22:12Z</time>
      </trkpt>
      <trkpt lat="61.217012022282" lon="14.513088356326">
        <ele>481.2</ele>
        <time>2015-02-07T17:22:13Z</time>
      </trkpt>
      <trkpt lat="61.217015794137" lon="14.513088523964">
        <ele>481.4</ele>
        <time>2015-02-07T17:22:14Z</time>
      </trkpt>
      <trkpt lat="61.217013614843" lon="14.513092044362">
        <ele>481.6</ele>
        <time>2015-02-07T17:22:15Z</time>
      </trkpt>
      <trkpt lat="61.217187790725" lon="14.512793564903">
        <ele>482.2</ele>
        <time>2015-02-07T17:22:52Z</time>
      </trkpt>
      <trkpt lat="61.217209667484" lon="14.512747212996">
        <ele>482.2</ele>
        <time>2015-02-07T17:22:53Z</time>
      </trkpt>
      <trkpt lat="61.217242608351" lon="14.512618299374">
        <ele>481.6</ele>
        <time>2015-02-07T17:22:55Z</time>
      </trkpt>
      <trkpt lat="61.217257611952" lon="14.512562056825">
        <ele>481</ele>
        <time>2015-02-07T17:22:56Z</time>
      </trkpt>
      <trkpt lat="61.217302371298" lon="14.512458205084">
        <ele>479.8</ele>
        <time>2015-02-07T17:22:58Z</time>
      </trkpt>
      <trkpt lat="61.217362050426" lon="14.512371787695">
        <ele>478.6</ele>
        <time>2015-02-07T17:23:00Z</time>
      </trkpt>
      <trkpt lat="61.217398511691" lon="14.512346306719">
        <ele>478.4</ele>
        <time>2015-02-07T17:23:01Z</time>
      </trkpt>
      <trkpt lat="61.217546536045" lon="14.512332895679">
        <ele>477.8</ele>
        <time>2015-02-07T17:23:05Z</time>
      </trkpt>
      <trkpt lat="61.217659440238" lon="14.512354856257">
        <ele>477.8</ele>
        <time>2015-02-07T17:23:09Z</time>
      </trkpt>
      <trkpt lat="61.217747534007" lon="14.512399196508">
        <ele>478</ele>
        <time>2015-02-07T17:23:12Z</time>
      </trkpt>
      <trkpt lat="61.217795227018" lon="14.51247362778">
        <ele>478</ele>
        <time>2015-02-07T17:23:14Z</time>
      </trkpt>
      <trkpt lat="61.21782271965" lon="14.512579407358">
        <ele>478.2</ele>
        <time>2015-02-07T17:23:16Z</time>
      </trkpt>
      <trkpt lat="61.217834119034" lon="14.512650318232">
        <ele>478.2</ele>
        <time>2015-02-07T17:23:18Z</time>
      </trkpt>
      <trkpt lat="61.217853565042" lon="14.512788032849">
        <ele>478.6</ele>
        <time>2015-02-07T17:23:22Z</time>
      </trkpt>
      <trkpt lat="61.21786965829" lon="14.513002441851">
        <ele>478.6</ele>
        <time>2015-02-07T17:23:28Z</time>
      </trkpt>
      <trkpt lat="61.217884242796" lon="14.513292958505">
        <ele>478.6</ele>
        <time>2015-02-07T17:23:35Z</time>
      </trkpt>
      <trkpt lat="61.217903437347" lon="14.513446598732">
        <ele>478.8</ele>
        <time>2015-02-07T17:23:40Z</time>
      </trkpt>
      <trkpt lat="61.217941574992" lon="14.513682130122">
        <ele>478.6</ele>
        <time>2015-02-07T17:23:47Z</time>
      </trkpt>
      <trkpt lat="61.217959931353" lon="14.513737534481">
        <ele>479</ele>
        <time>2015-02-07T17:23:51Z</time>
      </trkpt>
      <trkpt lat="61.217971246918" lon="14.513773911927">
        <ele>479.2</ele>
        <time>2015-02-07T17:23:52Z</time>
      </trkpt>
      <trkpt lat="61.217987675442" lon="14.513816911074">
        <ele>479.2</ele>
        <time>2015-02-07T17:23:54Z</time>
      </trkpt>
      <trkpt lat="61.218007708183" lon="14.513869046492">
        <ele>479</ele>
        <time>2015-02-07T17:23:56Z</time>
      </trkpt>
      <trkpt lat="61.218055987927" lon="14.513962169401">
        <ele>478.4</ele>
        <time>2015-02-07T17:24:00Z</time>
      </trkpt>
      <trkpt lat="61.218117594892" lon="14.514074989775">
        <ele>477.8</ele>
        <time>2015-02-07T17:24:05Z</time>
      </trkpt>
      <trkpt lat="61.218138465823" lon="14.514127711926">
        <ele>478</ele>
        <time>2015-02-07T17:24:08Z</time>
      </trkpt>
      <trkpt lat="61.218156403089" lon="14.514185714674">
        <ele>478.6</ele>
        <time>2015-02-07T17:24:10Z</time>
      </trkpt>
      <trkpt lat="61.218181213513" lon="14.514266013276">
        <ele>478.4</ele>
        <time>2015-02-07T17:24:13Z</time>
      </trkpt>
      <trkpt lat="61.218191355612" lon="14.514309682975">
        <ele>478.4</ele>
        <time>2015-02-07T17:24:15Z</time>
      </trkpt>
      <trkpt lat="61.218191858526" lon="14.514308174233">
        <ele>478.6</ele>
        <time>2015-02-07T17:24:17Z</time>
      </trkpt>
      <trkpt lat="61.218263859047" lon="14.51462861427">
        <ele>477.4</ele>
        <time>2015-02-07T17:24:57Z</time>
      </trkpt>
      <trkpt lat="61.21826528397" lon="14.514624926234">
        <ele>477.4</ele>
        <time>2015-02-07T17:24:58Z</time>
      </trkpt>
      <trkpt lat="61.218363938933" lon="14.515346524005">
        <ele>478.4</ele>
        <time>2015-02-07T17:25:41Z</time>
      </trkpt>
      <trkpt lat="61.218335189016" lon="14.515628994035">
        <ele>479</ele>
        <time>2015-02-07T17:25:47Z</time>
      </trkpt>
      <trkpt lat="61.218317587026" lon="14.515718764184">
        <ele>478.6</ele>
        <time>2015-02-07T17:25:49Z</time>
      </trkpt>
      <trkpt lat="61.218296716095" lon="14.515843738313">
        <ele>478.2</ele>
        <time>2015-02-07T17:25:52Z</time>
      </trkpt>
      <trkpt lat="61.218257572622" lon="14.516041048239">
        <ele>478.4</ele>
        <time>2015-02-07T17:25:57Z</time>
      </trkpt>
      <trkpt lat="61.21821080162" lon="14.51632343445">
        <ele>478.2</ele>
        <time>2015-02-07T17:26:03Z</time>
      </trkpt>
      <trkpt lat="61.218164282075" lon="14.516469447148">
        <ele>477.8</ele>
        <time>2015-02-07T17:26:07Z</time>
      </trkpt>
      <trkpt lat="61.218096556323" lon="14.51666876873">
        <ele>477.6</ele>
        <time>2015-02-07T17:26:12Z</time>
      </trkpt>
      <trkpt lat="61.218068141682" lon="14.516746888038">
        <ele>477.4</ele>
        <time>2015-02-07T17:26:14Z</time>
      </trkpt>
      <trkpt lat="61.218031093684" lon="14.516860798059">
        <ele>477.6</ele>
        <time>2015-02-07T17:26:17Z</time>
      </trkpt>
      <trkpt lat="61.218011731495" lon="14.516927601802">
        <ele>478</ele>
        <time>2015-02-07T17:26:19Z</time>
      </trkpt>
      <trkpt lat="61.217996141161" lon="14.517001111065">
        <ele>478.2</ele>
        <time>2015-02-07T17:26:21Z</time>
      </trkpt>
      <trkpt lat="61.217971582194" lon="14.517107477376">
        <ele>478.6</ele>
        <time>2015-02-07T17:26:24Z</time>
      </trkpt>
      <trkpt lat="61.217963870846" lon="14.517146788487">
        <ele>478.6</ele>
        <time>2015-02-07T17:26:25Z</time>
      </trkpt>
      <trkpt lat="61.217911316333" lon="14.517353905236">
        <ele>478.6</ele>
        <time>2015-02-07T17:26:30Z</time>
      </trkpt>
      <trkpt lat="61.217827078238" lon="14.517477035347">
        <ele>478.6</ele>
        <time>2015-02-07T17:26:34Z</time>
      </trkpt>
      <trkpt lat="61.217803608918" lon="14.517477035347">
        <ele>478.6</ele>
        <time>2015-02-07T17:26:35Z</time>
      </trkpt>
      <trkpt lat="61.217744600342" lon="14.51747343113">
        <ele>478.8</ele>
        <time>2015-02-07T17:26:38Z</time>
      </trkpt>
      <trkpt lat="61.217699924815" lon="14.517463959583">
        <ele>479.4</ele>
        <time>2015-02-07T17:26:43Z</time>
      </trkpt>
      <trkpt lat="61.217680059712" lon="14.517458930443">
        <ele>479.6</ele>
        <time>2015-02-07T17:26:45Z</time>
      </trkpt>
      <trkpt lat="61.217646867388" lon="14.517449207439">
        <ele>479.4</ele>
        <time>2015-02-07T17:26:47Z</time>
      </trkpt>
      <trkpt lat="61.217559025076" lon="14.517442166643">
        <ele>479</ele>
        <time>2015-02-07T17:26:51Z</time>
      </trkpt>
      <trkpt lat="61.217424663219" lon="14.517408303767">
        <ele>479</ele>
        <time>2015-02-07T17:26:57Z</time>
      </trkpt>
      <trkpt lat="61.217277141779" lon="14.517401933523">
        <ele>479.2</ele>
        <time>2015-02-07T17:27:03Z</time>
      </trkpt>
      <trkpt lat="61.217204638344" lon="14.51737787747">
        <ele>479.8</ele>
        <time>2015-02-07T17:27:08Z</time>
      </trkpt>
      <trkpt lat="61.217105145191" lon="14.517352312675">
        <ele>479.6</ele>
        <time>2015-02-07T17:27:13Z</time>
      </trkpt>
      <trkpt lat="61.217017386698" lon="14.517290621891">
        <ele>479.6</ele>
        <time>2015-02-07T17:27:17Z</time>
      </trkpt>
      <trkpt lat="61.216918480278" lon="14.517259608861">
        <ele>479.8</ele>
        <time>2015-02-07T17:27:21Z</time>
      </trkpt>
      <trkpt lat="61.216781268575" lon="14.517376704004">
        <ele>480.6</ele>
        <time>2015-02-07T17:27:27Z</time>
      </trkpt>
      <trkpt lat="61.21674732188" lon="14.51762430533">
        <ele>480</ele>
        <time>2015-02-07T17:27:32Z</time>
      </trkpt>
      <trkpt lat="61.216732821193" lon="14.51788079147">
        <ele>479.2</ele>
        <time>2015-02-07T17:27:36Z</time>
      </trkpt>
      <trkpt lat="61.216728797881" lon="14.518201734421">
        <ele>479.2</ele>
        <time>2015-02-07T17:27:41Z</time>
      </trkpt>
      <trkpt lat="61.216732569736" lon="14.51826552068">
        <ele>479.4</ele>
        <time>2015-02-07T17:27:42Z</time>
      </trkpt>
      <trkpt lat="61.216784956611" lon="14.518542458656">
        <ele>479.4</ele>
        <time>2015-02-07T17:27:47Z</time>
      </trkpt>
      <trkpt lat="61.216853520553" lon="14.518771284526">
        <ele>479.4</ele>
        <time>2015-02-07T17:27:52Z</time>
      </trkpt>
      <trkpt lat="61.216882354289" lon="14.518977730723">
        <ele>479.6</ele>
        <time>2015-02-07T17:27:57Z</time>
      </trkpt>
      <trkpt lat="61.216862824462" lon="14.519161964885">
        <ele>479.4</ele>
        <time>2015-02-07T17:28:01Z</time>
      </trkpt>
      <trkpt lat="61.216851005983" lon="14.519227930438">
        <ele>479.4</ele>
        <time>2015-02-07T17:28:03Z</time>
      </trkpt>
      <trkpt lat="61.216842707902" lon="14.519267744463">
        <ele>479.6</ele>
        <time>2015-02-07T17:28:04Z</time>
      </trkpt>
      <trkpt lat="61.216816807831" lon="14.519446614209">
        <ele>479.8</ele>
        <time>2015-02-07T17:28:08Z</time>
      </trkpt>
      <trkpt lat="61.216790153389" lon="14.519598913332">
        <ele>479.8</ele>
        <time>2015-02-07T17:28:12Z</time>
      </trkpt>
      <trkpt lat="61.216754278857" lon="14.519714332095">
        <ele>480</ele>
        <time>2015-02-07T17:28:16Z</time>
      </trkpt>
      <trkpt lat="61.216731144813" lon="14.519767976255">
        <ele>479.6</ele>
        <time>2015-02-07T17:28:18Z</time>
      </trkpt>
      <trkpt lat="61.216662832328" lon="14.519905439415">
        <ele>479.6</ele>
        <time>2015-02-07T17:28:23Z</time>
      </trkpt>
      <trkpt lat="61.216628717995" lon="14.520012643916">
        <ele>480.6</ele>
        <time>2015-02-07T17:28:28Z</time>
      </trkpt>
      <trkpt lat="61.216624527045" lon="14.520033850123">
        <ele>481</ele>
        <time>2015-02-07T17:28:29Z</time>
      </trkpt>
      <trkpt lat="61.216608769073" lon="14.520123620272">
        <ele>481.6</ele>
        <time>2015-02-07T17:28:33Z</time>
      </trkpt>
      <trkpt lat="61.216602063553" lon="14.520165194496">
        <ele>481.6</ele>
        <time>2015-02-07T17:28:36Z</time>
      </trkpt>
      <trkpt lat="61.216599213707" lon="14.520211378765">
        <ele>481.6</ele>
        <time>2015-02-07T17:28:38Z</time>
      </trkpt>
      <trkpt lat="61.21661069691" lon="14.520373903806">
        <ele>481.8</ele>
        <time>2015-02-07T17:28:42Z</time>
      </trkpt>
      <trkpt lat="61.216682026879" lon="14.520575404682">
        <ele>480.4</ele>
        <time>2015-02-07T17:28:47Z</time>
      </trkpt>
      <trkpt lat="61.216805659904" lon="14.520894671253">
        <ele>480.8</ele>
        <time>2015-02-07T17:28:53Z</time>
      </trkpt>
      <trkpt lat="61.216873804751" lon="14.521066584022">
        <ele>482.2</ele>
        <time>2015-02-07T17:28:56Z</time>
      </trkpt>
      <trkpt lat="61.216935495535" lon="14.52122181681">
        <ele>482.6</ele>
        <time>2015-02-07T17:28:59Z</time>
      </trkpt>
      <trkpt lat="61.216982434175" lon="14.521327764026">
        <ele>483.4</ele>
        <time>2015-02-07T17:29:01Z</time>
      </trkpt>
      <trkpt lat="61.217054602334" lon="14.521472016525">
        <ele>484</ele>
        <time>2015-02-07T17:29:04Z</time>
      </trkpt>
      <trkpt lat="61.21707337779" lon="14.521516775871">
        <ele>484.4</ele>
        <time>2015-02-07T17:29:05Z</time>
      </trkpt>
      <trkpt lat="61.217145629768" lon="14.521658346162">
        <ele>485.4</ele>
        <time>2015-02-07T17:29:09Z</time>
      </trkpt>
      <trkpt lat="61.21721670828" lon="14.521792791838">
        <ele>485.8</ele>
        <time>2015-02-07T17:29:13Z</time>
      </trkpt>
      <trkpt lat="61.217303125669" lon="14.521963028227">
        <ele>486</ele>
        <time>2015-02-07T17:29:18Z</time>
      </trkpt>
      <trkpt lat="61.217353081793" lon="14.522082386483">
        <ele>486.4</ele>
        <time>2015-02-07T17:29:21Z</time>
      </trkpt>
      <trkpt lat="61.217381161158" lon="14.522151034244">
        <ele>486.6</ele>
        <time>2015-02-07T17:29:23Z</time>
      </trkpt>
      <trkpt lat="61.217413180016" lon="14.522259244573">
        <ele>487</ele>
        <time>2015-02-07T17:29:26Z</time>
      </trkpt>
      <trkpt lat="61.217423154477" lon="14.52229386182">
        <ele>487.2</ele>
        <time>2015-02-07T17:29:27Z</time>
      </trkpt>
      <trkpt lat="61.217473529696" lon="14.522464517304">
        <ele>487</ele>
        <time>2015-02-07T17:29:31Z</time>
      </trkpt>
      <trkpt lat="61.217508649857" lon="14.522580858076">
        <ele>488.2</ele>
        <time>2015-02-07T17:29:36Z</time>
      </trkpt>
      <trkpt lat="61.217509823323" lon="14.522576164212">
        <ele>489.2</ele>
        <time>2015-02-07T17:29:38Z</time>
      </trkpt>
      <trkpt lat="61.217638150212" lon="14.522906411072">
        <ele>488.2</ele>
        <time>2015-02-07T17:31:10Z</time>
      </trkpt>
      <trkpt lat="61.217658350591" lon="14.522942117966">
        <ele>488.2</ele>
        <time>2015-02-07T17:31:11Z</time>
      </trkpt>
      <trkpt lat="61.217739403564" lon="14.523079581126">
        <ele>488.4</ele>
        <time>2015-02-07T17:31:15Z</time>
      </trkpt>
      <trkpt lat="61.217837052699" lon="14.523340509673">
        <ele>489.4</ele>
        <time>2015-02-07T17:31:19Z</time>
      </trkpt>
      <trkpt lat="61.217976778972" lon="14.523689112894">
        <ele>489.4</ele>
        <time>2015-02-07T17:31:23Z</time>
      </trkpt>
      <trkpt lat="61.218087503871" lon="14.523979713367">
        <ele>489</ele>
        <time>2015-02-07T17:31:27Z</time>
      </trkpt>
      <trkpt lat="61.218152463596" lon="14.524175849827">
        <ele>488.6</ele>
        <time>2015-02-07T17:31:30Z</time>
      </trkpt>
      <trkpt lat="61.218164952627" lon="14.524229745444">
        <ele>488.8</ele>
        <time>2015-02-07T17:31:31Z</time>
      </trkpt>
      <trkpt lat="61.218190517422" lon="14.524352959374">
        <ele>489</ele>
        <time>2015-02-07T17:31:33Z</time>
      </trkpt>
      <trkpt lat="61.218228487429" lon="14.524607433858">
        <ele>489.6</ele>
        <time>2015-02-07T17:31:37Z</time>
      </trkpt>
      <trkpt lat="61.21831892813" lon="14.525002556624">
        <ele>489.4</ele>
        <time>2015-02-07T17:31:42Z</time>
      </trkpt>
      <trkpt lat="61.218405429338" lon="14.525345124877">
        <ele>487.8</ele>
        <time>2015-02-07T17:31:45Z</time>
      </trkpt>
      <trkpt lat="61.218432335237" lon="14.525547296305">
        <ele>486.4</ele>
        <time>2015-02-07T17:31:47Z</time>
      </trkpt>
      <trkpt lat="61.218430826495" lon="14.525664894362">
        <ele>486.4</ele>
        <time>2015-02-07T17:31:49Z</time>
      </trkpt>
      <trkpt lat="61.218420265301" lon="14.525768578465">
        <ele>487.2</ele>
        <time>2015-02-07T17:31:51Z</time>
      </trkpt>
      <trkpt lat="61.218427138459" lon="14.525830353068">
        <ele>488</ele>
        <time>2015-02-07T17:31:52Z</time>
      </trkpt>
      <trkpt lat="61.21841867274" lon="14.525887852902">
        <ele>488.6</ele>
        <time>2015-02-07T17:31:53Z</time>
      </trkpt>
      <trkpt lat="61.218420013844" lon="14.525941580881">
        <ele>489</ele>
        <time>2015-02-07T17:31:54Z</time>
      </trkpt>
      <trkpt lat="61.218426803183" lon="14.526118355152">
        <ele>489.8</ele>
        <time>2015-02-07T17:31:57Z</time>
      </trkpt>
      <trkpt lat="61.218439962766" lon="14.526222625988">
        <ele>490</ele>
        <time>2015-02-07T17:31:59Z</time>
      </trkpt>
      <trkpt lat="61.218467958312" lon="14.526428485452">
        <ele>491.2</ele>
        <time>2015-02-07T17:32:02Z</time>
      </trkpt>
      <trkpt lat="61.21849494803" lon="14.52647894449">
        <ele>491.6</ele>
        <time>2015-02-07T17:32:03Z</time>
      </trkpt>
      <trkpt lat="61.218557393185" lon="14.526691509474">
        <ele>491.8</ele>
        <time>2015-02-07T17:32:06Z</time>
      </trkpt>
      <trkpt lat="61.218637105054" lon="14.526996526815">
        <ele>490.8</ele>
        <time>2015-02-07T17:32:10Z</time>
      </trkpt>
      <trkpt lat="61.218641715099" lon="14.52716626029">
        <ele>490.2</ele>
        <time>2015-02-07T17:32:12Z</time>
      </trkpt>
      <trkpt lat="61.218648839714" lon="14.527287630202">
        <ele>489.8</ele>
        <time>2015-02-07T17:32:14Z</time>
      </trkpt>
      <trkpt lat="61.218642385651" lon="14.527491394191">
        <ele>491.8</ele>
        <time>2015-02-07T17:32:18Z</time>
      </trkpt>
      <trkpt lat="61.218615563571" lon="14.527579990874">
        <ele>493</ele>
        <time>2015-02-07T17:32:20Z</time>
      </trkpt>
      <trkpt lat="61.218585137274" lon="14.527722566993">
        <ele>494.4</ele>
        <time>2015-02-07T17:32:23Z</time>
      </trkpt>
      <trkpt lat="61.218595195554" lon="14.5278527379">
        <ele>495.2</ele>
        <time>2015-02-07T17:32:25Z</time>
      </trkpt>
      <trkpt lat="61.21859301626" lon="14.527895904685">
        <ele>495.6</ele>
        <time>2015-02-07T17:32:26Z</time>
      </trkpt>
      <trkpt lat="61.218577677383" lon="14.528026410868">
        <ele>496.2</ele>
        <time>2015-02-07T17:32:29Z</time>
      </trkpt>
      <trkpt lat="61.218553202235" lon="14.528105116909">
        <ele>496.6</ele>
        <time>2015-02-07T17:32:31Z</time>
      </trkpt>
      <trkpt lat="61.218538282453" lon="14.528178290896">
        <ele>497.2</ele>
        <time>2015-02-07T17:32:33Z</time>
      </trkpt>
      <trkpt lat="61.218515316047" lon="14.528239478766">
        <ele>497.8</ele>
        <time>2015-02-07T17:32:35Z</time>
      </trkpt>
      <trkpt lat="61.218507185604" lon="14.528276275307">
        <ele>498.2</ele>
        <time>2015-02-07T17:32:36Z</time>
      </trkpt>
      <trkpt lat="61.218476340212" lon="14.528364955809">
        <ele>499.2</ele>
        <time>2015-02-07T17:32:39Z</time>
      </trkpt>
      <trkpt lat="61.218448763761" lon="14.528490851947">
        <ele>500.2</ele>
        <time>2015-02-07T17:32:42Z</time>
      </trkpt>
      <trkpt lat="61.218437280558" lon="14.528574335671">
        <ele>501.2</ele>
        <time>2015-02-07T17:32:44Z</time>
      </trkpt>
      <trkpt lat="61.218429066296" lon="14.528619262655">
        <ele>501.6</ele>
        <time>2015-02-07T17:32:45Z</time>
      </trkpt>
      <trkpt lat="61.218387994986" lon="14.528768125199">
        <ele>502.8</ele>
        <time>2015-02-07T17:32:49Z</time>
      </trkpt>
      <trkpt lat="61.218370476815" lon="14.52881581821">
        <ele>503</ele>
        <time>2015-02-07T17:32:50Z</time>
      </trkpt>
      <trkpt lat="61.218353964472" lon="14.528947497859">
        <ele>503</ele>
        <time>2015-02-07T17:32:52Z</time>
      </trkpt>
      <trkpt lat="61.218343990011" lon="14.529104490846">
        <ele>503</ele>
        <time>2015-02-07T17:32:54Z</time>
      </trkpt>
      <trkpt lat="61.218278024458" lon="14.529288054456">
        <ele>502.4</ele>
        <time>2015-02-07T17:32:58Z</time>
      </trkpt>
      <trkpt lat="61.218176771106" lon="14.52937489094">
        <ele>503</ele>
        <time>2015-02-07T17:33:02Z</time>
      </trkpt>
      <trkpt lat="61.218147015361" lon="14.529376399682">
        <ele>503.8</ele>
        <time>2015-02-07T17:33:04Z</time>
      </trkpt>
      <trkpt lat="61.218026902734" lon="14.529411519843">
        <ele>505</ele>
        <time>2015-02-07T17:33:09Z</time>
      </trkpt>
      <trkpt lat="61.217899749311" lon="14.529439263932">
        <ele>505</ele>
        <time>2015-02-07T17:33:13Z</time>
      </trkpt>
      <trkpt lat="61.217783995272" lon="14.529508833702">
        <ele>505</ele>
        <time>2015-02-07T17:33:17Z</time>
      </trkpt>
      <trkpt lat="61.217768488757" lon="14.52954085256">
        <ele>505</ele>
        <time>2015-02-07T17:33:18Z</time>
      </trkpt>
      <trkpt lat="61.217714341683" lon="14.529573206694">
        <ele>505.4</ele>
        <time>2015-02-07T17:33:20Z</time>
      </trkpt>
      <trkpt lat="61.217667319224" lon="14.529612517805">
        <ele>506</ele>
        <time>2015-02-07T17:33:22Z</time>
      </trkpt>
      <trkpt lat="61.217572352297" lon="14.529682003756">
        <ele>506.8</ele>
        <time>2015-02-07T17:33:25Z</time>
      </trkpt>
      <trkpt lat="61.217435056775" lon="14.52978308947">
        <ele>506.8</ele>
        <time>2015-02-07T17:33:28Z</time>
      </trkpt>
      <trkpt lat="61.217273621381" lon="14.529993558979">
        <ele>506</ele>
        <time>2015-02-07T17:33:33Z</time>
      </trkpt>
      <trkpt lat="61.217174379685" lon="14.53006807407">
        <ele>505.8</ele>
        <time>2015-02-07T17:33:35Z</time>
      </trkpt>
      <trkpt lat="61.217079328939" lon="14.530170919983">
        <ele>505.4</ele>
        <time>2015-02-07T17:33:37Z</time>
      </trkpt>
      <trkpt lat="61.217014453033" lon="14.530210314913">
        <ele>505.2</ele>
        <time>2015-02-07T17:33:38Z</time>
      </trkpt>
      <trkpt lat="61.216960138321" lon="14.530234203328">
        <ele>504.8</ele>
        <time>2015-02-07T17:33:39Z</time>
      </trkpt>
      <trkpt lat="61.216854945476" lon="14.530235292975">
        <ele>504.2</ele>
        <time>2015-02-07T17:33:41Z</time>
      </trkpt>
      <trkpt lat="61.216799457298" lon="14.530230766749">
        <ele>504</ele>
        <time>2015-02-07T17:33:42Z</time>
      </trkpt>
      <trkpt lat="61.216701808163" lon="14.530206962153">
        <ele>503.8</ele>
        <time>2015-02-07T17:33:44Z</time>
      </trkpt>
      <trkpt lat="61.216574487102" lon="14.530170668526">
        <ele>503.6</ele>
        <time>2015-02-07T17:33:46Z</time>
      </trkpt>
      <trkpt lat="61.216450686439" lon="14.530135548365">
        <ele>502.2</ele>
        <time>2015-02-07T17:33:48Z</time>
      </trkpt>
      <trkpt lat="61.216392264596" lon="14.530087939173">
        <ele>502</ele>
        <time>2015-02-07T17:33:49Z</time>
      </trkpt>
      <trkpt lat="61.216329987079" lon="14.530028092407">
        <ele>501.6</ele>
        <time>2015-02-07T17:33:50Z</time>
      </trkpt>
      <trkpt lat="61.216266955191" lon="14.529948631995">
        <ele>500.8</ele>
        <time>2015-02-07T17:33:51Z</time>
      </trkpt>
      <trkpt lat="61.216169892789" lon="14.529744281273">
        <ele>499.8</ele>
        <time>2015-02-07T17:33:53Z</time>
      </trkpt>
      <trkpt lat="61.216131000773" lon="14.529643866111">
        <ele>499</ele>
        <time>2015-02-07T17:33:54Z</time>
      </trkpt>
      <trkpt lat="61.216092276395" lon="14.529533560307">
        <ele>498.4</ele>
        <time>2015-02-07T17:33:55Z</time>
      </trkpt>
      <trkpt lat="61.216055479854" lon="14.529426691082">
        <ele>497.8</ele>
        <time>2015-02-07T17:33:56Z</time>
      </trkpt>
      <trkpt lat="61.216018683313" lon="14.529324850997">
        <ele>497.2</ele>
        <time>2015-02-07T17:33:57Z</time>
      </trkpt>
      <trkpt lat="61.215934529037" lon="14.529141957939">
        <ele>496.8</ele>
        <time>2015-02-07T17:33:59Z</time>
      </trkpt>
      <trkpt lat="61.215874598452" lon="14.529056462559">
        <ele>496.4</ele>
        <time>2015-02-07T17:34:00Z</time>
      </trkpt>
      <trkpt lat="61.215815170781" lon="14.528976666871">
        <ele>495.8</ele>
        <time>2015-02-07T17:34:01Z</time>
      </trkpt>
      <trkpt lat="61.21568617334" lon="14.528835767132">
        <ele>494.4</ele>
        <time>2015-02-07T17:34:03Z</time>
      </trkpt>
      <trkpt lat="61.21548416955" lon="14.528607276538">
        <ele>491.8</ele>
        <time>2015-02-07T17:34:07Z</time>
      </trkpt>
      <trkpt lat="61.215379731076" lon="14.528497725105">
        <ele>491.6</ele>
        <time>2015-02-07T17:34:09Z</time>
      </trkpt>
      <trkpt lat="61.215178816933" lon="14.528399740694">
        <ele>490.4</ele>
        <time>2015-02-07T17:34:12Z</time>
      </trkpt>
      <trkpt lat="61.215140846926" lon="14.528409044603">
        <ele>490.4</ele>
        <time>2015-02-07T17:34:13Z</time>
      </trkpt>
      <trkpt lat="61.215090639345" lon="14.528402003807">
        <ele>490</ele>
        <time>2015-02-07T17:34:14Z</time>
      </trkpt>
      <trkpt lat="61.215050741501" lon="14.528409798974">
        <ele>489.8</ele>
        <time>2015-02-07T17:34:15Z</time>
      </trkpt>
      <trkpt lat="61.214938843136" lon="14.528468053179">
        <ele>490.4</ele>
        <time>2015-02-07T17:34:18Z</time>
      </trkpt>
      <trkpt lat="61.214730385283" lon="14.52857777225">
        <ele>491</ele>
        <time>2015-02-07T17:34:23Z</time>
      </trkpt>
      <trkpt lat="61.214663162445" lon="14.528629991487">
        <ele>490.4</ele>
        <time>2015-02-07T17:34:25Z</time>
      </trkpt>
      <trkpt lat="61.214551431718" lon="14.528690676443">
        <ele>490</ele>
        <time>2015-02-07T17:34:27Z</time>
      </trkpt>
      <trkpt lat="61.214362168416" lon="14.52877390871">
        <ele>490.4</ele>
        <time>2015-02-07T17:34:31Z</time>
      </trkpt>
      <trkpt lat="61.214225459627" lon="14.528809364147">
        <ele>490</ele>
        <time>2015-02-07T17:34:33Z</time>
      </trkpt>
      <trkpt lat="61.214085817173" lon="14.528832330553">
        <ele>489.2</ele>
        <time>2015-02-07T17:34:35Z</time>
      </trkpt>
      <trkpt lat="61.214012475548" lon="14.528811711079">
        <ele>488.8</ele>
        <time>2015-02-07T17:34:36Z</time>
      </trkpt>
      <trkpt lat="61.213882137003" lon="14.528779273126">
        <ele>487.8</ele>
        <time>2015-02-07T17:34:38Z</time>
      </trkpt>
      <trkpt lat="61.213831426508" lon="14.528750523209">
        <ele>487</ele>
        <time>2015-02-07T17:34:39Z</time>
      </trkpt>
      <trkpt lat="61.213769400448" lon="14.528729400821">
        <ele>486.2</ele>
        <time>2015-02-07T17:34:40Z</time>
      </trkpt>
      <trkpt lat="61.213711816795" lon="14.528728814088">
        <ele>485.8</ele>
        <time>2015-02-07T17:34:41Z</time>
      </trkpt>
      <trkpt lat="61.2135772873" lon="14.528782458248">
        <ele>485.2</ele>
        <time>2015-02-07T17:34:43Z</time>
      </trkpt>
      <trkpt lat="61.213485840771" lon="14.528903660522">
        <ele>484</ele>
        <time>2015-02-07T17:34:45Z</time>
      </trkpt>
      <trkpt lat="61.213461868537" lon="14.528983037115">
        <ele>483.8</ele>
        <time>2015-02-07T17:34:46Z</time>
      </trkpt>
      <trkpt lat="61.213433537715" lon="14.529242792196">
        <ele>484.6</ele>
        <time>2015-02-07T17:34:50Z</time>
      </trkpt>
      <trkpt lat="61.213480392536" lon="14.529395091319">
        <ele>485.2</ele>
        <time>2015-02-07T17:34:52Z</time>
      </trkpt>
      <trkpt lat="61.213504197132" lon="14.529461978881">
        <ele>485</ele>
        <time>2015-02-07T17:34:53Z</time>
      </trkpt>
      <trkpt lat="61.213521296208" lon="14.529549150641">
        <ele>485</ele>
        <time>2015-02-07T17:34:54Z</time>
      </trkpt>
      <trkpt lat="61.213546358089" lon="14.529684937421">
        <ele>484.4</ele>
        <time>2015-02-07T17:34:56Z</time>
      </trkpt>
      <trkpt lat="61.213543005329" lon="14.529764816928">
        <ele>484.4</ele>
        <time>2015-02-07T17:34:57Z</time>
      </trkpt>
      <trkpt lat="61.213523726959" lon="14.529890545428">
        <ele>485</ele>
        <time>2015-02-07T17:35:00Z</time>
      </trkpt>
      <trkpt lat="61.213487433332" lon="14.529943267579">
        <ele>486.4</ele>
        <time>2015-02-07T17:35:02Z</time>
      </trkpt>
      <trkpt lat="61.213444182728" lon="14.529987272554">
        <ele>487.6</ele>
        <time>2015-02-07T17:35:04Z</time>
      </trkpt>
      <trkpt lat="61.213401099762" lon="14.529997498472">
        <ele>488.2</ele>
        <time>2015-02-07T17:35:05Z</time>
      </trkpt>
      <trkpt lat="61.213368494171" lon="14.53000604801">
        <ele>488.6</ele>
        <time>2015-02-07T17:35:06Z</time>
      </trkpt>
      <trkpt lat="61.213236395427" lon="14.530106966086">
        <ele>489.8</ele>
        <time>2015-02-07T17:35:09Z</time>
      </trkpt>
      <trkpt lat="61.213181829258" lon="14.53017284782">
        <ele>489.8</ele>
        <time>2015-02-07T17:35:10Z</time>
      </trkpt>
      <trkpt lat="61.213098932267" lon="14.530423969544">
        <ele>489</ele>
        <time>2015-02-07T17:35:13Z</time>
      </trkpt>
      <trkpt lat="61.213089795996" lon="14.530477613704">
        <ele>488.8</ele>
        <time>2015-02-07T17:35:14Z</time>
      </trkpt>
      <trkpt lat="61.213071271997" lon="14.530532934244">
        <ele>488.6</ele>
        <time>2015-02-07T17:35:15Z</time>
      </trkpt>
      <trkpt lat="61.213035984198" lon="14.53063888146">
        <ele>488.8</ele>
        <time>2015-02-07T17:35:17Z</time>
      </trkpt>
      <trkpt lat="61.212981166572" lon="14.530814985179">
        <ele>489.6</ele>
        <time>2015-02-07T17:35:21Z</time>
      </trkpt>
      <trkpt lat="61.212951494646" lon="14.530869970443">
        <ele>489.8</ele>
        <time>2015-02-07T17:35:22Z</time>
      </trkpt>
      <trkpt lat="61.21291679358" lon="14.530946245733">
        <ele>490.4</ele>
        <time>2015-02-07T17:35:24Z</time>
      </trkpt>
      <trkpt lat="61.212803889387" lon="14.53104540361">
        <ele>490.8</ele>
        <time>2015-02-07T17:35:27Z</time>
      </trkpt>
      <trkpt lat="61.212724931889" lon="14.531033501312">
        <ele>490.8</ele>
        <time>2015-02-07T17:35:29Z</time>
      </trkpt>
      <trkpt lat="61.212689308814" lon="14.531033166036">
        <ele>491</ele>
        <time>2015-02-07T17:35:30Z</time>
      </trkpt>
      <trkpt lat="61.212603897253" lon="14.530935265444">
        <ele>491</ele>
        <time>2015-02-07T17:35:32Z</time>
      </trkpt>
      <trkpt lat="61.212567771264" lon="14.530885225501">
        <ele>491</ele>
        <time>2015-02-07T17:35:33Z</time>
      </trkpt>
      <trkpt lat="61.212548995808" lon="14.530799730121">
        <ele>490.8</ele>
        <time>2015-02-07T17:35:34Z</time>
      </trkpt>
      <trkpt lat="61.212493004716" lon="14.53058272273">
        <ele>490</ele>
        <time>2015-02-07T17:35:36Z</time>
      </trkpt>
      <trkpt lat="61.21244824537" lon="14.530497478807">
        <ele>489.6</ele>
        <time>2015-02-07T17:35:37Z</time>
      </trkpt>
      <trkpt lat="61.21234682438" lon="14.530432770539">
        <ele>488.8</ele>
        <time>2015-02-07T17:35:39Z</time>
      </trkpt>
      <trkpt lat="61.212305920708" lon="14.530443918466">
        <ele>488.4</ele>
        <time>2015-02-07T17:35:40Z</time>
      </trkpt>
      <trkpt lat="61.212240541888" lon="14.530514158788">
        <ele>487.8</ele>
        <time>2015-02-07T17:35:42Z</time>
      </trkpt>
      <trkpt lat="61.212202236605" lon="14.530619686909">
        <ele>487.8</ele>
        <time>2015-02-07T17:35:44Z</time>
      </trkpt>
      <trkpt lat="61.212183628787" lon="14.530690346326">
        <ele>487.8</ele>
        <time>2015-02-07T17:35:45Z</time>
      </trkpt>
      <trkpt lat="61.212164601874" lon="14.530738542251">
        <ele>488.2</ele>
        <time>2015-02-07T17:35:46Z</time>
      </trkpt>
      <trkpt lat="61.212079357951" lon="14.531020760824">
        <ele>488.8</ele>
        <time>2015-02-07T17:35:51Z</time>
      </trkpt>
      <trkpt lat="61.211991683277" lon="14.531179094915">
        <ele>489.4</ele>
        <time>2015-02-07T17:35:55Z</time>
      </trkpt>
      <trkpt lat="61.211964106826" lon="14.531212706334">
        <ele>489.6</ele>
        <time>2015-02-07T17:35:56Z</time>
      </trkpt>
      <trkpt lat="61.21179445717" lon="14.531425271318">
        <ele>490.4</ele>
        <time>2015-02-07T17:36:01Z</time>
      </trkpt>
      <trkpt lat="61.211674847457" lon="14.531708914814">
        <ele>489.8</ele>
        <time>2015-02-07T17:36:05Z</time>
      </trkpt>
      <trkpt lat="61.211659089485" lon="14.53181653841">
        <ele>489.4</ele>
        <time>2015-02-07T17:36:06Z</time>
      </trkpt>
      <trkpt lat="61.211665292091" lon="14.531976297424">
        <ele>488.2</ele>
        <time>2015-02-07T17:36:08Z</time>
      </trkpt>
      <trkpt lat="61.211670237412" lon="14.532053327085">
        <ele>487.6</ele>
        <time>2015-02-07T17:36:09Z</time>
      </trkpt>
      <trkpt lat="61.211675350371" lon="14.53213169785">
        <ele>487.4</ele>
        <time>2015-02-07T17:36:10Z</time>
      </trkpt>
      <trkpt lat="61.211703262098" lon="14.532319200953">
        <ele>487.4</ele>
        <time>2015-02-07T17:36:12Z</time>
      </trkpt>
      <trkpt lat="61.211719522984" lon="14.532502596925">
        <ele>487.2</ele>
        <time>2015-02-07T17:36:14Z</time>
      </trkpt>
      <trkpt lat="61.211729665083" lon="14.532613070367">
        <ele>487</ele>
        <time>2015-02-07T17:36:15Z</time>
      </trkpt>
      <trkpt lat="61.211716756957" lon="14.532775846865">
        <ele>486.4</ele>
        <time>2015-02-07T17:36:17Z</time>
      </trkpt>
      <trkpt lat="61.211697143311" lon="14.532846422463">
        <ele>486.4</ele>
        <time>2015-02-07T17:36:18Z</time>
      </trkpt>
      <trkpt lat="61.211668058118" lon="14.533072817582">
        <ele>486.6</ele>
        <time>2015-02-07T17:36:21Z</time>
      </trkpt>
      <trkpt lat="61.211669063946" lon="14.533210783656">
        <ele>486.8</ele>
        <time>2015-02-07T17:36:23Z</time>
      </trkpt>
      <trkpt lat="61.211694042008" lon="14.533593752667">
        <ele>486.4</ele>
        <time>2015-02-07T17:36:28Z</time>
      </trkpt>
      <trkpt lat="61.211680211873" lon="14.53380807785">
        <ele>485.8</ele>
        <time>2015-02-07T17:36:31Z</time>
      </trkpt>
      <trkpt lat="61.211632854138" lon="14.533925005355">
        <ele>485.8</ele>
        <time>2015-02-07T17:36:33Z</time>
      </trkpt>
      <trkpt lat="61.211471670201" lon="14.533867254064">
        <ele>485.6</ele>
        <time>2015-02-07T17:36:36Z</time>
      </trkpt>
      <trkpt lat="61.21139631692" lon="14.533694838381">
        <ele>484.6</ele>
        <time>2015-02-07T17:36:38Z</time>
      </trkpt>
      <trkpt lat="61.211367315546" lon="14.533602805119">
        <ele>484.2</ele>
        <time>2015-02-07T17:36:39Z</time>
      </trkpt>
      <trkpt lat="61.211303613106" lon="14.533384205167">
        <ele>483.2</ele>
        <time>2015-02-07T17:36:41Z</time>
      </trkpt>
      <trkpt lat="61.211224907065" lon="14.533100980766">
        <ele>482.4</ele>
        <time>2015-02-07T17:36:44Z</time>
      </trkpt>
      <trkpt lat="61.211206634523" lon="14.532971815687">
        <ele>481.6</ele>
        <time>2015-02-07T17:36:45Z</time>
      </trkpt>
      <trkpt lat="61.211172436371" lon="14.532790850466">
        <ele>480</ele>
        <time>2015-02-07T17:36:47Z</time>
      </trkpt>
      <trkpt lat="61.211167574869" lon="14.532704768353">
        <ele>479</ele>
        <time>2015-02-07T17:36:48Z</time>
      </trkpt>
      <trkpt lat="61.211167239593" lon="14.532622122819">
        <ele>478.4</ele>
        <time>2015-02-07T17:36:49Z</time>
      </trkpt>
      <trkpt lat="61.211168915973" lon="14.532521204743">
        <ele>478.2</ele>
        <time>2015-02-07T17:36:50Z</time>
      </trkpt>
      <trkpt lat="61.21116832924" lon="14.532294641986">
        <ele>478.6</ele>
        <time>2015-02-07T17:36:53Z</time>
      </trkpt>
      <trkpt lat="61.21119598951" lon="14.532095152766">
        <ele>479.2</ele>
        <time>2015-02-07T17:36:56Z</time>
      </trkpt>
      <trkpt lat="61.21119431313" lon="14.532057015121">
        <ele>479.4</ele>
        <time>2015-02-07T17:36:57Z</time>
      </trkpt>
      <trkpt lat="61.211199258451" lon="14.531800109886">
        <ele>481.2</ele>
        <time>2015-02-07T17:37:01Z</time>
      </trkpt>
      <trkpt lat="61.211177214054" lon="14.531703550398">
        <ele>482.4</ele>
        <time>2015-02-07T17:37:03Z</time>
      </trkpt>
      <trkpt lat="61.211155253476" lon="14.531610846584">
        <ele>483</ele>
        <time>2015-02-07T17:37:05Z</time>
      </trkpt>
      <trkpt lat="61.211134550183" lon="14.531565584324">
        <ele>483.4</ele>
        <time>2015-02-07T17:37:06Z</time>
      </trkpt>
      <trkpt lat="61.211099430022" lon="14.531541192995">
        <ele>483.6</ele>
        <time>2015-02-07T17:37:08Z</time>
      </trkpt>
      <trkpt lat="61.211064058404" lon="14.531535493303">
        <ele>483.6</ele>
        <time>2015-02-07T17:37:09Z</time>
      </trkpt>
      <trkpt lat="61.210976970463" lon="14.53167656068">
        <ele>483</ele>
        <time>2015-02-07T17:37:12Z</time>
      </trkpt>
      <trkpt lat="61.210982083422" lon="14.531834559495">
        <ele>482.4</ele>
        <time>2015-02-07T17:37:14Z</time>
      </trkpt>
      <trkpt lat="61.210991722607" lon="14.531921815074">
        <ele>482</ele>
        <time>2015-02-07T17:37:15Z</time>
      </trkpt>
      <trkpt lat="61.211021310714" lon="14.532087944332">
        <ele>481.8</ele>
        <time>2015-02-07T17:37:17Z</time>
      </trkpt>
      <trkpt lat="61.211036817229" lon="14.532172936798">
        <ele>481.4</ele>
        <time>2015-02-07T17:37:18Z</time>
      </trkpt>
      <trkpt lat="61.211080486928" lon="14.532438559209">
        <ele>481</ele>
        <time>2015-02-07T17:37:21Z</time>
      </trkpt>
      <trkpt lat="61.211120300953" lon="14.532679203558">
        <ele>480.8</ele>
        <time>2015-02-07T17:37:24Z</time>
      </trkpt>
      <trkpt lat="61.21115910915" lon="14.532819935659">
        <ele>480.2</ele>
        <time>2015-02-07T17:37:26Z</time>
      </trkpt>
      <trkpt lat="61.211166569041" lon="14.53312411481">
        <ele>480</ele>
        <time>2015-02-07T17:37:30Z</time>
      </trkpt>
      <trkpt lat="61.211171682" lon="14.53320206648">
        <ele>480</ele>
        <time>2015-02-07T17:37:31Z</time>
      </trkpt>
      <trkpt lat="61.211163048643" lon="14.533388228479">
        <ele>479.6</ele>
        <time>2015-02-07T17:37:34Z</time>
      </trkpt>
      <trkpt lat="61.211099094746" lon="14.533607498983">
        <ele>479.6</ele>
        <time>2015-02-07T17:37:37Z</time>
      </trkpt>
      <trkpt lat="61.211076798892" lon="14.533640775126">
        <ele>479.4</ele>
        <time>2015-02-07T17:37:38Z</time>
      </trkpt>
      <trkpt lat="61.210928020167" lon="14.533601631653">
        <ele>479.8</ele>
        <time>2015-02-07T17:37:43Z</time>
      </trkpt>
      <trkpt lat="61.210850990506" lon="14.533516471549">
        <ele>480.2</ele>
        <time>2015-02-07T17:37:45Z</time>
      </trkpt>
      <trkpt lat="61.2108196422" lon="14.533418990052">
        <ele>480.6</ele>
        <time>2015-02-07T17:37:47Z</time>
      </trkpt>
      <trkpt lat="61.210779995813" lon="14.533186811422">
        <ele>481</ele>
        <time>2015-02-07T17:37:50Z</time>
      </trkpt>
      <trkpt lat="61.2107190594" lon="14.532847679748">
        <ele>480.2</ele>
        <time>2015-02-07T17:37:55Z</time>
      </trkpt>
      <trkpt lat="61.210708246749" lon="14.532794370864">
        <ele>479.2</ele>
        <time>2015-02-07T17:37:56Z</time>
      </trkpt>
      <trkpt lat="61.210664325593" lon="14.532535202516">
        <ele>479.4</ele>
        <time>2015-02-07T17:38:00Z</time>
      </trkpt>
      <trkpt lat="61.210652423295" lon="14.532467979678">
        <ele>480.4</ele>
        <time>2015-02-07T17:38:01Z</time>
      </trkpt>
      <trkpt lat="61.210617470772" lon="14.532166650373">
        <ele>479.6</ele>
        <time>2015-02-07T17:38:05Z</time>
      </trkpt>
      <trkpt lat="61.210579165489" lon="14.531833469848">
        <ele>481.6</ele>
        <time>2015-02-07T17:38:10Z</time>
      </trkpt>
      <trkpt lat="61.210561647318" lon="14.531758954757">
        <ele>481.4</ele>
        <time>2015-02-07T17:38:11Z</time>
      </trkpt>
      <trkpt lat="61.210530718107" lon="14.53150556992">
        <ele>480.6</ele>
        <time>2015-02-07T17:38:15Z</time>
      </trkpt>
      <trkpt lat="61.210527532985" lon="14.531418481979">
        <ele>480.6</ele>
        <time>2015-02-07T17:38:16Z</time>
      </trkpt>
      <trkpt lat="61.21053633398" lon="14.531156799061">
        <ele>480.2</ele>
        <time>2015-02-07T17:38:19Z</time>
      </trkpt>
      <trkpt lat="61.210576399462" lon="14.53082747421">
        <ele>481.4</ele>
        <time>2015-02-07T17:38:23Z</time>
      </trkpt>
      <trkpt lat="61.210636246228" lon="14.530633349406">
        <ele>481.2</ele>
        <time>2015-02-07T17:38:26Z</time>
      </trkpt>
      <trkpt lat="61.2107693508" lon="14.530406032278">
        <ele>481</ele>
        <time>2015-02-07T17:38:31Z</time>
      </trkpt>
      <trkpt lat="61.210822743503" lon="14.530346772245">
        <ele>481.6</ele>
        <time>2015-02-07T17:38:33Z</time>
      </trkpt>
      <trkpt lat="61.210891475083" lon="14.530321123631">
        <ele>482.6</ele>
        <time>2015-02-07T17:38:36Z</time>
      </trkpt>
      <trkpt lat="61.210968169468" lon="14.530398991482">
        <ele>483.4</ele>
        <time>2015-02-07T17:38:40Z</time>
      </trkpt>
      <trkpt lat="61.211002116163" lon="14.530604683308">
        <ele>483.8</ele>
        <time>2015-02-07T17:38:44Z</time>
      </trkpt>
      <trkpt lat="61.210941095931" lon="14.530963177171">
        <ele>483.6</ele>
        <time>2015-02-07T17:38:48Z</time>
      </trkpt>
      <trkpt lat="61.210908657978" lon="14.531226033555">
        <ele>482</ele>
        <time>2015-02-07T17:38:51Z</time>
      </trkpt>
      <trkpt lat="61.21090849034" lon="14.531291999108">
        <ele>481.8</ele>
        <time>2015-02-07T17:38:52Z</time>
      </trkpt>
      <trkpt lat="61.210940760655" lon="14.53158855073">
        <ele>481.4</ele>
        <time>2015-02-07T17:38:56Z</time>
      </trkpt>
      <trkpt lat="61.210994153358" lon="14.531886527275">
        <ele>481.8</ele>
        <time>2015-02-07T17:39:00Z</time>
      </trkpt>
      <trkpt lat="61.21101410228" lon="14.532002868047">
        <ele>481.6</ele>
        <time>2015-02-07T17:39:01Z</time>
      </trkpt>
      <trkpt lat="61.211057101427" lon="14.532230436632">
        <ele>481</ele>
        <time>2015-02-07T17:39:03Z</time>
      </trkpt>
      <trkpt lat="61.211121977333" lon="14.532559929121">
        <ele>480.2</ele>
        <time>2015-02-07T17:39:06Z</time>
      </trkpt>
      <trkpt lat="61.211128682853" lon="14.532659422274">
        <ele>479.8</ele>
        <time>2015-02-07T17:39:07Z</time>
      </trkpt>
      <trkpt lat="61.211198923175" lon="14.533078433455">
        <ele>479</ele>
        <time>2015-02-07T17:39:11Z</time>
      </trkpt>
      <trkpt lat="61.211190708913" lon="14.53317021526">
        <ele>479</ele>
        <time>2015-02-07T17:39:12Z</time>
      </trkpt>
      <trkpt lat="61.211189116352" lon="14.533266188015">
        <ele>478.8</ele>
        <time>2015-02-07T17:39:13Z</time>
      </trkpt>
      <trkpt lat="61.211180566814" lon="14.533323939306">
        <ele>478.8</ele>
        <time>2015-02-07T17:39:14Z</time>
      </trkpt>
      <trkpt lat="61.211164892661" lon="14.533386133004">
        <ele>479</ele>
        <time>2015-02-07T17:39:16Z</time>
      </trkpt>
      <trkpt lat="61.211149302327" lon="14.533366100263">
        <ele>479.2</ele>
        <time>2015-02-07T17:39:18Z</time>
      </trkpt>
      <trkpt lat="61.211145027558" lon="14.533364340064">
        <ele>479.6</ele>
        <time>2015-02-07T17:39:20Z</time>
      </trkpt>
      <trkpt lat="61.211135136916" lon="14.533382528787">
        <ele>479.8</ele>
        <time>2015-02-07T17:39:22Z</time>
      </trkpt>
      <trkpt lat="61.211106722275" lon="14.533368279557">
        <ele>479.8</ele>
        <time>2015-02-07T17:39:25Z</time>
      </trkpt>
      <trkpt lat="61.211105297352" lon="14.533357215449">
        <ele>480</ele>
        <time>2015-02-07T17:39:27Z</time>
      </trkpt>
      <trkpt lat="61.211113763071" lon="14.533362663684">
        <ele>480</ele>
        <time>2015-02-07T17:39:28Z</time>
      </trkpt>
      <trkpt lat="61.210939168094" lon="14.533547568398">
        <ele>480</ele>
        <time>2015-02-07T17:40:58Z</time>
      </trkpt>
      <trkpt lat="61.210923326303" lon="14.533561147076">
        <ele>480</ele>
        <time>2015-02-07T17:40:59Z</time>
      </trkpt>
      <trkpt lat="61.210876052387" lon="14.533531391331">
        <ele>480.4</ele>
        <time>2015-02-07T17:41:01Z</time>
      </trkpt>
      <trkpt lat="61.210853924171" lon="14.533462995027">
        <ele>481.6</ele>
        <time>2015-02-07T17:41:03Z</time>
      </trkpt>
      <trkpt lat="61.210782594202" lon="14.533286639851">
        <ele>482.4</ele>
        <time>2015-02-07T17:41:08Z</time>
      </trkpt>
      <trkpt lat="61.210768764067" lon="14.533173735658">
        <ele>481.6</ele>
        <time>2015-02-07T17:41:10Z</time>
      </trkpt>
      <trkpt lat="61.210761052719" lon="14.533130485054">
        <ele>481.2</ele>
        <time>2015-02-07T17:41:11Z</time>
      </trkpt>
      <trkpt lat="61.21073917596" lon="14.53302520839">
        <ele>480</ele>
        <time>2015-02-07T17:41:13Z</time>
      </trkpt>
      <trkpt lat="61.210725513463" lon="14.532929990006">
        <ele>479.6</ele>
        <time>2015-02-07T17:41:15Z</time>
      </trkpt>
      <trkpt lat="61.210704558713" lon="14.532718598488">
        <ele>479.8</ele>
        <time>2015-02-07T17:41:20Z</time>
      </trkpt>
      <trkpt lat="61.210682681954" lon="14.532541321303">
        <ele>479.6</ele>
        <time>2015-02-07T17:41:24Z</time>
      </trkpt>
      <trkpt lat="61.210666421068" lon="14.532393967501">
        <ele>479</ele>
        <time>2015-02-07T17:41:27Z</time>
      </trkpt>
      <trkpt lat="61.210656865702" lon="14.532297491832">
        <ele>479</ele>
        <time>2015-02-07T17:41:29Z</time>
      </trkpt>
      <trkpt lat="61.210632306735" lon="14.53210739034">
        <ele>479.8</ele>
        <time>2015-02-07T17:41:33Z</time>
      </trkpt>
      <trkpt lat="61.210600455515" lon="14.531916031563">
        <ele>479.8</ele>
        <time>2015-02-07T17:41:37Z</time>
      </trkpt>
      <trkpt lat="61.210582350611" lon="14.531840091549">
        <ele>480</ele>
        <time>2015-02-07T17:41:39Z</time>
      </trkpt>
      <trkpt lat="61.210569358666" lon="14.531709333909">
        <ele>481</ele>
        <time>2015-02-07T17:41:42Z</time>
      </trkpt>
      <trkpt lat="61.210560306214" lon="14.531639261225">
        <ele>481.2</ele>
        <time>2015-02-07T17:41:44Z</time>
      </trkpt>
      <trkpt lat="61.210549493563" lon="14.531542701737">
        <ele>481.4</ele>
        <time>2015-02-07T17:41:46Z</time>
      </trkpt>
      <trkpt lat="61.210533987048" lon="14.531342039051">
        <ele>481.4</ele>
        <time>2015-02-07T17:41:51Z</time>
      </trkpt>
      <trkpt lat="61.210529460822" lon="14.531130228438">
        <ele>481</ele>
        <time>2015-02-07T17:41:55Z</time>
      </trkpt>
      <trkpt lat="61.210499788896" lon="14.531080272314">
        <ele>480.8</ele>
        <time>2015-02-07T17:41:57Z</time>
      </trkpt>
      <trkpt lat="61.210484114743" lon="14.531067867102">
        <ele>480.8</ele>
        <time>2015-02-07T17:41:58Z</time>
      </trkpt>
      <trkpt lat="61.210459723414" lon="14.531059317564">
        <ele>481</ele>
        <time>2015-02-07T17:42:03Z</time>
      </trkpt>
      <trkpt lat="61.210525186053" lon="14.530723873926">
        <ele>481.6</ele>
        <time>2015-02-07T17:42:30Z</time>
      </trkpt>
      <trkpt lat="61.210509763357" lon="14.530653801242">
        <ele>481.6</ele>
        <time>2015-02-07T17:42:32Z</time>
      </trkpt>
      <trkpt lat="61.210495430308" lon="14.530588925336">
        <ele>481.6</ele>
        <time>2015-02-07T17:42:34Z</time>
      </trkpt>
      <trkpt lat="61.210474559377" lon="14.530528743294">
        <ele>481.4</ele>
        <time>2015-02-07T17:42:36Z</time>
      </trkpt>
      <trkpt lat="61.210406498349" lon="14.530383736424">
        <ele>481.2</ele>
        <time>2015-02-07T17:42:40Z</time>
      </trkpt>
      <trkpt lat="61.210284709342" lon="14.530153234174">
        <ele>480.6</ele>
        <time>2015-02-07T17:42:46Z</time>
      </trkpt>
      <trkpt lat="61.21021195445" lon="14.530045945854">
        <ele>479.8</ele>
        <time>2015-02-07T17:42:49Z</time>
      </trkpt>
      <trkpt lat="61.210167865656" lon="14.529991212047">
        <ele>480</ele>
        <time>2015-02-07T17:42:51Z</time>
      </trkpt>
      <trkpt lat="61.210086812683" lon="14.529935891507">
        <ele>479.6</ele>
        <time>2015-02-07T17:42:55Z</time>
      </trkpt>
      <trkpt lat="61.209951193541" lon="14.529993726617">
        <ele>479.6</ele>
        <time>2015-02-07T17:43:00Z</time>
      </trkpt>
      <trkpt lat="61.2097970504" lon="14.530069079898">
        <ele>478.8</ele>
        <time>2015-02-07T17:43:06Z</time>
      </trkpt>
      <trkpt lat="61.209678278877" lon="14.530117946375">
        <ele>479.2</ele>
        <time>2015-02-07T17:43:11Z</time>
      </trkpt>
      <trkpt lat="61.209659671059" lon="14.530122053506">
        <ele>479.2</ele>
        <time>2015-02-07T17:43:12Z</time>
      </trkpt>
      <trkpt lat="61.209598315551" lon="14.530134793994">
        <ele>480</ele>
        <time>2015-02-07T17:43:15Z</time>
      </trkpt>
      <trkpt lat="61.209579875371" lon="14.530138984944">
        <ele>480.4</ele>
        <time>2015-02-07T17:43:16Z</time>
      </trkpt>
      <trkpt lat="61.209503851538" lon="14.530171925811">
        <ele>481.6</ele>
        <time>2015-02-07T17:43:19Z</time>
      </trkpt>
      <trkpt lat="61.209465043341" lon="14.530184414842">
        <ele>482.2</ele>
        <time>2015-02-07T17:43:21Z</time>
      </trkpt>
      <trkpt lat="61.209432521569" lon="14.530204279945">
        <ele>482.6</ele>
        <time>2015-02-07T17:43:23Z</time>
      </trkpt>
      <trkpt lat="61.209366639835" lon="14.530228503636">
        <ele>483.4</ele>
        <time>2015-02-07T17:43:26Z</time>
      </trkpt>
      <trkpt lat="61.209349289302" lon="14.530233113681">
        <ele>483.6</ele>
        <time>2015-02-07T17:43:27Z</time>
      </trkpt>
      <trkpt lat="61.209285083948" lon="14.530232191672">
        <ele>484</ele>
        <time>2015-02-07T17:43:31Z</time>
      </trkpt>
      <trkpt lat="61.20925138871" lon="14.530237053174">
        <ele>484.2</ele>
        <time>2015-02-07T17:43:33Z</time>
      </trkpt>
      <trkpt lat="61.209225069544" lon="14.530238897192">
        <ele>484.4</ele>
        <time>2015-02-07T17:43:36Z</time>
      </trkpt>
      <trkpt lat="61.20922037568" lon="14.530233365138">
        <ele>484.4</ele>
        <time>2015-02-07T17:43:37Z</time>
      </trkpt>
      <trkpt lat="61.208905048602" lon="14.530319866346">
        <ele>484.2</ele>
        <time>2015-02-07T17:44:09Z</time>
      </trkpt>
      <trkpt lat="61.208883507119" lon="14.530345934055">
        <ele>484.2</ele>
        <time>2015-02-07T17:44:10Z</time>
      </trkpt>
      <trkpt lat="61.208784181604" lon="14.530472584564">
        <ele>484</ele>
        <time>2015-02-07T17:44:13Z</time>
      </trkpt>
      <trkpt lat="61.208621824201" lon="14.530710211429">
        <ele>483.2</ele>
        <time>2015-02-07T17:44:17Z</time>
      </trkpt>
      <trkpt lat="61.208593828655" lon="14.530755808965">
        <ele>483</ele>
        <time>2015-02-07T17:44:18Z</time>
      </trkpt>
      <trkpt lat="61.208515709347" lon="14.530873909936">
        <ele>482.6</ele>
        <time>2015-02-07T17:44:20Z</time>
      </trkpt>
      <trkpt lat="61.208454018563" lon="14.530973486908">
        <ele>482.2</ele>
        <time>2015-02-07T17:44:22Z</time>
      </trkpt>
      <trkpt lat="61.2084308007" lon="14.531031741113">
        <ele>482</ele>
        <time>2015-02-07T17:44:23Z</time>
      </trkpt>
      <trkpt lat="61.208361063292" lon="14.531225698279">
        <ele>481.8</ele>
        <time>2015-02-07T17:44:26Z</time>
      </trkpt>
      <trkpt lat="61.208292164074" lon="14.531374393185">
        <ele>482</ele>
        <time>2015-02-07T17:44:29Z</time>
      </trkpt>
      <trkpt lat="61.208264168528" lon="14.531423175843">
        <ele>481.8</ele>
        <time>2015-02-07T17:44:30Z</time>
      </trkpt>
      <trkpt lat="61.208218068078" lon="14.531513532725">
        <ele>481.6</ele>
        <time>2015-02-07T17:44:32Z</time>
      </trkpt>
      <trkpt lat="61.208078509443" lon="14.531746046631">
        <ele>480.8</ele>
        <time>2015-02-07T17:44:37Z</time>
      </trkpt>
      <trkpt lat="61.208030062061" lon="14.531831793468">
        <ele>480.6</ele>
        <time>2015-02-07T17:44:39Z</time>
      </trkpt>
      <trkpt lat="61.207971724037" lon="14.531934807019">
        <ele>480.2</ele>
        <time>2015-02-07T17:44:41Z</time>
      </trkpt>
      <trkpt lat="61.207855383265" lon="14.532171260418">
        <ele>480</ele>
        <time>2015-02-07T17:44:46Z</time>
      </trkpt>
      <trkpt lat="61.207768965876" lon="14.532330265061">
        <ele>480.6</ele>
        <time>2015-02-07T17:44:51Z</time>
      </trkpt>
      <trkpt lat="61.207684643962" lon="14.532429422938">
        <ele>481</ele>
        <time>2015-02-07T17:44:55Z</time>
      </trkpt>
      <trkpt lat="61.207588000655" lon="14.532529754281">
        <ele>480.8</ele>
        <time>2015-02-07T17:44:59Z</time>
      </trkpt>
      <trkpt lat="61.207419273008" lon="14.532693871883">
        <ele>480.4</ele>
        <time>2015-02-07T17:45:04Z</time>
      </trkpt>
      <trkpt lat="61.207373759291" lon="14.53274357655">
        <ele>480.2</ele>
        <time>2015-02-07T17:45:05Z</time>
      </trkpt>
      <trkpt lat="61.207215592838" lon="14.532881961719">
        <ele>479.2</ele>
        <time>2015-02-07T17:45:09Z</time>
      </trkpt>
      <trkpt lat="61.207199164314" lon="14.532901491546">
        <ele>478.2</ele>
        <time>2015-02-07T17:45:10Z</time>
      </trkpt>
      <trkpt lat="61.20719614683" lon="14.532914483491">
        <ele>477.8</ele>
        <time>2015-02-07T17:45:11Z</time>
      </trkpt>
      <trkpt lat="61.207211737164" lon="14.532913142387">
        <ele>477</ele>
        <time>2015-02-07T17:45:13Z</time>
      </trkpt>
      <trkpt lat="61.207300501485" lon="14.532928481264">
        <ele>478</ele>
        <time>2015-02-07T17:45:17Z</time>
      </trkpt>
      <trkpt lat="61.207320031312" lon="14.532955051887">
        <ele>478</ele>
        <time>2015-02-07T17:45:18Z</time>
      </trkpt>
      <trkpt lat="61.207349116505" lon="14.533069129546">
        <ele>477.4</ele>
        <time>2015-02-07T17:45:21Z</time>
      </trkpt>
      <trkpt lat="61.207357330767" lon="14.533099639662">
        <ele>477.2</ele>
        <time>2015-02-07T17:45:22Z</time>
      </trkpt>
      <trkpt lat="61.207361437898" lon="14.533147081216">
        <ele>476.6</ele>
        <time>2015-02-07T17:45:24Z</time>
      </trkpt>
      <trkpt lat="61.20736378483" lon="14.533192511114">
        <ele>476.4</ele>
        <time>2015-02-07T17:45:26Z</time>
      </trkpt>
      <trkpt lat="61.207355905844" lon="14.533344726418">
        <ele>476</ele>
        <time>2015-02-07T17:45:30Z</time>
      </trkpt>
      <trkpt lat="61.207376692956" lon="14.533484955605">
        <ele>476</ele>
        <time>2015-02-07T17:45:34Z</time>
      </trkpt>
      <trkpt lat="61.207411645479" lon="14.533730629094">
        <ele>475.6</ele>
        <time>2015-02-07T17:45:39Z</time>
      </trkpt>
      <trkpt lat="61.207447017097" lon="14.53402600725">
        <ele>475.2</ele>
        <time>2015-02-07T17:45:45Z</time>
      </trkpt>
      <trkpt lat="61.207438048464" lon="14.534379388154">
        <ele>474.6</ele>
        <time>2015-02-07T17:45:51Z</time>
      </trkpt>
      <trkpt lat="61.207428576917" lon="14.534442336223">
        <ele>474.6</ele>
        <time>2015-02-07T17:45:52Z</time>
      </trkpt>
      <trkpt lat="61.207335034913" lon="14.534775013834">
        <ele>473.4</ele>
        <time>2015-02-07T17:45:57Z</time>
      </trkpt>
      <trkpt lat="61.207259178718" lon="14.535152366972">
        <ele>472.8</ele>
        <time>2015-02-07T17:46:02Z</time>
      </trkpt>
      <trkpt lat="61.207265046048" lon="14.535331739632">
        <ele>472.2</ele>
        <time>2015-02-07T17:46:04Z</time>
      </trkpt>
      <trkpt lat="61.207281558391" lon="14.535491833922">
        <ele>471.4</ele>
        <time>2015-02-07T17:46:06Z</time>
      </trkpt>
      <trkpt lat="61.207291029938" lon="14.535555620181">
        <ele>471.2</ele>
        <time>2015-02-07T17:46:07Z</time>
      </trkpt>
      <trkpt lat="61.207346350478" lon="14.5358825981">
        <ele>470.4</ele>
        <time>2015-02-07T17:46:13Z</time>
      </trkpt>
      <trkpt lat="61.207359426242" lon="14.535960633589">
        <ele>470.2</ele>
        <time>2015-02-07T17:46:15Z</time>
      </trkpt>
      <trkpt lat="61.207382308829" lon="14.536063060407">
        <ele>470.2</ele>
        <time>2015-02-07T17:46:18Z</time>
      </trkpt>
      <trkpt lat="61.207425056519" lon="14.536209911295">
        <ele>470</ele>
        <time>2015-02-07T17:46:22Z</time>
      </trkpt>
      <trkpt lat="61.207479371231" lon="14.53640059952">
        <ele>469.8</ele>
        <time>2015-02-07T17:46:26Z</time>
      </trkpt>
      <trkpt lat="61.207524549672" lon="14.536576451782">
        <ele>469.8</ele>
        <time>2015-02-07T17:46:30Z</time>
      </trkpt>
      <trkpt lat="61.207572829416" lon="14.536721542471">
        <ele>469.8</ele>
        <time>2015-02-07T17:46:34Z</time>
      </trkpt>
      <trkpt lat="61.207638962607" lon="14.536767475283">
        <ele>470.2</ele>
        <time>2015-02-07T17:46:39Z</time>
      </trkpt>
      <trkpt lat="61.207705850169" lon="14.536730511104">
        <ele>470.2</ele>
        <time>2015-02-07T17:46:43Z</time>
      </trkpt>
      <trkpt lat="61.207776509586" lon="14.53666295299">
        <ele>469.2</ele>
        <time>2015-02-07T17:46:48Z</time>
      </trkpt>
      <trkpt lat="61.20782311295" lon="14.536634286892">
        <ele>469.8</ele>
        <time>2015-02-07T17:46:52Z</time>
      </trkpt>
      <trkpt lat="61.207831830126" lon="14.53663529272">
        <ele>469.8</ele>
        <time>2015-02-07T17:46:53Z</time>
      </trkpt>
      <trkpt lat="61.207830991936" lon="14.53664116005">
        <ele>470</ele>
        <time>2015-02-07T17:46:54Z</time>
      </trkpt>
      <trkpt lat="61.207855718541" lon="14.536672340718">
        <ele>470.2</ele>
        <time>2015-02-07T17:46:57Z</time>
      </trkpt>
      <trkpt lat="61.207862256423" lon="14.536670329062">
        <ele>470.4</ele>
        <time>2015-02-07T17:46:58Z</time>
      </trkpt>
      <trkpt lat="61.207889665236" lon="14.536677705134">
        <ele>471</ele>
        <time>2015-02-07T17:47:02Z</time>
      </trkpt>
      <trkpt lat="61.208059314892" lon="14.536831177723">
        <ele>471</ele>
        <time>2015-02-07T17:47:16Z</time>
      </trkpt>
      <trkpt lat="61.208093429225" lon="14.536847690066">
        <ele>470.8</ele>
        <time>2015-02-07T17:47:18Z</time>
      </trkpt>
      <trkpt lat="61.208165178289" lon="14.53690099895">
        <ele>470.4</ele>
        <time>2015-02-07T17:47:22Z</time>
      </trkpt>
      <trkpt lat="61.208230640928" lon="14.536972915652">
        <ele>470</ele>
        <time>2015-02-07T17:47:27Z</time>
      </trkpt>
      <trkpt lat="61.208310855711" lon="14.537058159575">
        <ele>469.6</ele>
        <time>2015-02-07T17:47:32Z</time>
      </trkpt>
      <trkpt lat="61.208406325552" lon="14.537171482863">
        <ele>469.2</ele>
        <time>2015-02-07T17:47:37Z</time>
      </trkpt>
      <trkpt lat="61.208424346637" lon="14.537187408473">
        <ele>469</ele>
        <time>2015-02-07T17:47:38Z</time>
      </trkpt>
      <trkpt lat="61.208499783737" lon="14.537299809752">
        <ele>468.6</ele>
        <time>2015-02-07T17:47:42Z</time>
      </trkpt>
      <trkpt lat="61.208535490631" lon="14.537426292623">
        <ele>468.4</ele>
        <time>2015-02-07T17:47:46Z</time>
      </trkpt>
      <trkpt lat="61.20854395635" lon="14.53746426263">
        <ele>468.6</ele>
        <time>2015-02-07T17:47:47Z</time>
      </trkpt>
      <trkpt lat="61.208566084566" lon="14.537594852632">
        <ele>468.6</ele>
        <time>2015-02-07T17:47:51Z</time>
      </trkpt>
      <trkpt lat="61.208582177814" lon="14.537778751518">
        <ele>468.4</ele>
        <time>2015-02-07T17:47:57Z</time>
      </trkpt>
      <trkpt lat="61.208618471441" lon="14.537982515507">
        <ele>468.2</ele>
        <time>2015-02-07T17:48:02Z</time>
      </trkpt>
      <trkpt lat="61.208633977956" lon="14.538026939577">
        <ele>468</ele>
        <time>2015-02-07T17:48:03Z</time>
      </trkpt>
      <trkpt lat="61.208658453104" lon="14.538096425528">
        <ele>468</ele>
        <time>2015-02-07T17:48:05Z</time>
      </trkpt>
      <trkpt lat="61.208702206622" lon="14.538236487077">
        <ele>468.4</ele>
        <time>2015-02-07T17:48:09Z</time>
      </trkpt>
      <trkpt lat="61.208723664286" lon="14.538329861443">
        <ele>469</ele>
        <time>2015-02-07T17:48:13Z</time>
      </trkpt>
      <trkpt lat="61.208723999562" lon="14.538328352701">
        <ele>469.2</ele>
        <time>2015-02-07T17:48:14Z</time>
      </trkpt>
      <trkpt lat="61.208810333132" lon="14.538678967578">
        <ele>470.4</ele>
        <time>2015-02-07T17:48:30Z</time>
      </trkpt>
      <trkpt lat="61.208820810507" lon="14.538756583972">
        <ele>470.6</ele>
        <time>2015-02-07T17:48:32Z</time>
      </trkpt>
      <trkpt lat="61.208823576534" lon="14.538981051254">
        <ele>471</ele>
        <time>2015-02-07T17:48:36Z</time>
      </trkpt>
      <trkpt lat="61.208837071393" lon="14.539038048174">
        <ele>470.8</ele>
        <time>2015-02-07T17:48:37Z</time>
      </trkpt>
      <trkpt lat="61.208847213492" lon="14.539243320905">
        <ele>471</ele>
        <time>2015-02-07T17:48:39Z</time>
      </trkpt>
      <trkpt lat="61.208855343935" lon="14.539406684136">
        <ele>470.8</ele>
        <time>2015-02-07T17:48:41Z</time>
      </trkpt>
      <trkpt lat="61.208857104134" lon="14.539511457886">
        <ele>470.8</ele>
        <time>2015-02-07T17:48:42Z</time>
      </trkpt>
      <trkpt lat="61.20884402837" lon="14.539905239548">
        <ele>470.6</ele>
        <time>2015-02-07T17:48:46Z</time>
      </trkpt>
      <trkpt lat="61.208835395013" lon="14.540030046039">
        <ele>470.4</ele>
        <time>2015-02-07T17:48:47Z</time>
      </trkpt>
      <trkpt lat="61.20883899923" lon="14.540116798704">
        <ele>470.4</ele>
        <time>2015-02-07T17:48:48Z</time>
      </trkpt>
      <trkpt lat="61.208845537112" lon="14.540303463617">
        <ele>470.2</ele>
        <time>2015-02-07T17:48:50Z</time>
      </trkpt>
      <trkpt lat="61.208821145783" lon="14.540518291714">
        <ele>470.4</ele>
        <time>2015-02-07T17:48:53Z</time>
      </trkpt>
      <trkpt lat="61.208802621784" lon="14.540553579513">
        <ele>471.4</ele>
        <time>2015-02-07T17:48:56Z</time>
      </trkpt>
      <trkpt lat="61.208804801078" lon="14.54055718373">
        <ele>472.6</ele>
        <time>2015-02-07T17:48:58Z</time>
      </trkpt>
      <trkpt lat="61.208621572744" lon="14.541393613531">
        <ele>476.6</ele>
        <time>2015-02-07T17:49:54Z</time>
      </trkpt>
      <trkpt lat="61.208605395677" lon="14.541429907158">
        <ele>476.8</ele>
        <time>2015-02-07T17:49:55Z</time>
      </trkpt>
      <trkpt lat="61.208542782884" lon="14.541589666172">
        <ele>477.2</ele>
        <time>2015-02-07T17:49:59Z</time>
      </trkpt>
      <trkpt lat="61.208478745168" lon="14.541724866219">
        <ele>477.6</ele>
        <time>2015-02-07T17:50:03Z</time>
      </trkpt>
      <trkpt lat="61.20843750622" lon="14.54179016122">
        <ele>477.8</ele>
        <time>2015-02-07T17:50:05Z</time>
      </trkpt>
      <trkpt lat="61.208382604775" lon="14.541891414572">
        <ele>478.2</ele>
        <time>2015-02-07T17:50:08Z</time>
      </trkpt>
      <trkpt lat="61.208305658933" lon="14.542043546057">
        <ele>478.6</ele>
        <time>2015-02-07T17:50:12Z</time>
      </trkpt>
      <trkpt lat="61.20828244107" lon="14.542082773349">
        <ele>478.8</ele>
        <time>2015-02-07T17:50:13Z</time>
      </trkpt>
      <trkpt lat="61.208205914323" lon="14.5422276964">
        <ele>479</ele>
        <time>2015-02-07T17:50:17Z</time>
      </trkpt>
      <trkpt lat="61.208183199374" lon="14.542296260342">
        <ele>478.8</ele>
        <time>2015-02-07T17:50:19Z</time>
      </trkpt>
      <trkpt lat="61.208187809419" lon="14.542328446838">
        <ele>479.2</ele>
        <time>2015-02-07T17:50:21Z</time>
      </trkpt>
      <trkpt lat="61.208194012025" lon="14.542364824284">
        <ele>479.4</ele>
        <time>2015-02-07T17:50:24Z</time>
      </trkpt>
      <trkpt lat="61.208195688405" lon="14.542371110709">
        <ele>479.8</ele>
        <time>2015-02-07T17:50:25Z</time>
      </trkpt>
      <trkpt lat="61.208196275138" lon="14.542374128193">
        <ele>480.2</ele>
        <time>2015-02-07T17:50:26Z</time>
      </trkpt>
    </trkseg>
  </trk>
</gpx>